Time,TemperatureF,DewpointF,PressureIn,WindDirection,WindDirectionDegrees,WindSpeedMPH,WindSpeedGustMPH,Humidity,HourlyPrecipIn,Conditions,Clouds,dailyrainin,SoftwareType,DateUTC
2013-02-20 00:01:00,57.4,34.4,30.22,East,90,7.0,11.0,42,0.00,,,0.00,WUHU21623XXSP,2013-02-20 06:01:00,
2013-02-20 00:02:00,57.4,34.4,30.22,East,100,6.0,11.0,42,0.00,,,0.00,WUHU21623XXSP,2013-02-20 06:02:00,
2013-02-20 00:06:00,57.4,34.4,30.23,ESE,112,8.0,12.0,42,0.00,,,0.00,WUHU21623XXSP,2013-02-20 06:06:00,
2013-02-20 00:07:00,57.2,34.2,30.23,East,99,8.0,12.0,42,0.00,,,0.00,WUHU21623XXSP,2013-02-20 06:07:00,
2013-02-20 00:11:00,57.2,34.2,30.24,East,101,7.0,12.0,42,0.00,,,0.00,WUHU21623XXSP,2013-02-20 06:11:00,
2013-02-20 00:12:00,57.2,34.2,30.24,East,101,7.0,12.0,42,0.00,,,0.00,WUHU21623XXSP,2013-02-20 06:12:00,
2013-02-20 00:16:00,57.0,34.1,30.24,East,90,9.0,11.0,42,0.00,,,0.00,WUHU21623XXSP,2013-02-20 06:16:00,
2013-02-20 00:17:00,57.0,34.1,30.24,East,90,9.0,11.0,42,0.00,,,0.00,WUHU21623XXSP,2013-02-20 06:17:00,
2013-02-20 00:22:00,57.0,34.1,30.24,ESE,114,5.0,12.0,42,0.00,,,0.00,WUHU21623XXSP,2013-02-20 06:22:00,
2013-02-20 00:27:00,57.2,34.2,30.24,East,93,6.0,12.0,42,0.00,,,0.00,WUHU21623XXSP,2013-02-20 06:27:00,
2013-02-20 00:28:00,57.0,34.1,30.24,ESE,102,6.0,10.0,42,0.00,,,0.00,WUHU21623XXSP,2013-02-20 06:28:00,
2013-02-20 00:32:00,57.0,34.1,30.24,ENE,67,8.0,10.0,42,0.00,,,0.00,WUHU21623XXSP,2013-02-20 06:32:00,
2013-02-20 00:33:00,57.0,34.1,30.24,East,91,6.0,10.0,42,0.00,,,0.00,WUHU21623XXSP,2013-02-20 06:33:00,
2013-02-20 00:37:00,57.0,34.1,30.24,ESE,108,5.0,10.0,42,0.00,,,0.00,WUHU21623XXSP,2013-02-20 06:37:00,
2013-02-20 00:38:00,57.0,34.1,30.24,East,100,7.0,10.0,42,0.00,,,0.00,WUHU21623XXSP,2013-02-20 06:38:00,
2013-02-20 00:42:00,57.0,34.1,30.25,ESE,107,5.0,10.0,42,0.00,,,0.00,WUHU21623XXSP,2013-02-20 06:42:00,
2013-02-20 00:43:00,57.0,34.1,30.25,East,90,4.0,10.0,42,0.00,,,0.00,WUHU21623XXSP,2013-02-20 06:43:00,
2013-02-20 00:47:00,57.0,34.1,30.25,ENE,67,8.0,10.0,42,0.00,,,0.00,WUHU21623XXSP,2013-02-20 06:47:00,
2013-02-20 00:48:00,57.0,34.1,30.25,East,94,4.0,10.0,42,0.00,,,0.00,WUHU21623XXSP,2013-02-20 06:48:00,
2013-02-20 00:52:00,57.0,34.1,30.25,East,98,7.0,10.0,42,0.00,,,0.00,WUHU21623XXSP,2013-02-20 06:52:00,
2013-02-20 00:54:00,57.0,34.1,30.25,ENE,67,6.0,10.0,42,0.00,,,0.00,WUHU21623XXSP,2013-02-20 06:54:00,
2013-02-20 00:57:00,56.8,33.9,30.25,East,90,4.0,10.0,42,0.00,,,0.00,WUHU21623XXSP,2013-02-20 06:57:00,
2013-02-20 00:59:00,56.8,33.9,30.25,East,91,5.0,10.0,42,0.00,,,0.00,WUHU21623XXSP,2013-02-20 06:59:00,
2013-02-20 01:10:00,56.8,33.9,30.24,NE,45,5.0,5.0,42,0.00,,,0.00,WUHU21623XXSP,2013-02-20 07:10:00,
2013-02-20 01:15:00,56.8,33.9,30.24,East,89,5.0,8.0,42,0.00,,,0.00,WUHU21623XXSP,2013-02-20 07:15:00,
2013-02-20 01:16:00,56.8,33.9,30.24,East,89,4.0,8.0,42,0.00,,,0.00,WUHU21623XXSP,2013-02-20 07:16:00,
2013-02-20 01:20:00,56.8,34.5,30.24,ESE,112,5.0,9.0,43,0.00,,,0.00,WUHU21623XXSP,2013-02-20 07:20:00,
2013-02-20 01:21:00,56.8,34.5,30.24,ESE,115,6.0,9.0,43,0.00,,,0.00,WUHU21623XXSP,2013-02-20 07:21:00,
2013-02-20 01:25:00,56.7,34.3,30.25,East,90,8.0,9.0,43,0.00,,,0.00,WUHU21623XXSP,2013-02-20 07:25:00,
2013-02-20 01:27:00,56.5,34.1,30.24,East,90,6.0,9.0,43,0.00,,,0.00,WUHU21623XXSP,2013-02-20 07:27:00,
2013-02-20 01:30:00,56.5,34.7,30.24,East,90,5.0,10.0,44,0.00,,,0.00,WUHU21623XXSP,2013-02-20 07:30:00,
2013-02-20 01:31:00,56.5,34.7,30.24,East,90,6.0,10.0,44,0.00,,,0.00,WUHU21623XXSP,2013-02-20 07:31:00,
2013-02-20 01:32:00,56.5,34.7,30.24,ESE,112,6.0,10.0,44,0.00,,,0.00,WUHU21623XXSP,2013-02-20 07:32:00,
2013-02-20 01:36:00,56.5,34.7,30.24,SE,135,4.0,10.0,44,0.00,,,0.00,WUHU21623XXSP,2013-02-20 07:36:00,
2013-02-20 01:37:00,56.5,34.7,30.24,East,88,6.0,10.0,44,0.00,,,0.00,WUHU21623XXSP,2013-02-20 07:37:00,
2013-02-20 01:41:00,56.5,34.7,30.24,ENE,67,6.0,9.0,44,0.00,,,0.00,WUHU21623XXSP,2013-02-20 07:41:00,
2013-02-20 01:42:00,56.5,34.7,30.24,East,90,7.0,9.0,44,0.00,,,0.00,WUHU21623XXSP,2013-02-20 07:42:00,
2013-02-20 01:46:00,56.5,34.7,30.24,ENE,67,7.0,9.0,44,0.00,,,0.00,WUHU21623XXSP,2013-02-20 07:46:00,
2013-02-20 01:47:00,56.5,34.7,30.24,East,82,5.0,9.0,44,0.00,,,0.00,WUHU21623XXSP,2013-02-20 07:47:00,
2013-02-20 01:51:00,56.3,35.1,30.24,East,84,6.0,9.0,45,0.00,,,0.00,WUHU21623XXSP,2013-02-20 07:51:00,
2013-02-20 01:52:00,56.3,35.1,30.24,East,82,6.0,9.0,45,0.00,,,0.00,WUHU21623XXSP,2013-02-20 07:52:00,
2013-02-20 01:53:00,56.3,35.1,30.24,ESE,112,6.0,8.0,45,0.00,,,0.00,WUHU21623XXSP,2013-02-20 07:53:00,
2013-02-20 01:56:00,56.3,35.1,30.24,ESE,112,7.0,9.0,45,0.00,,,0.00,WUHU21623XXSP,2013-02-20 07:56:00,
2013-02-20 01:57:00,56.1,34.9,30.24,East,90,7.0,9.0,45,0.00,,,0.00,WUHU21623XXSP,2013-02-20 07:57:00,
2013-02-20 01:58:00,56.1,34.9,30.24,East,94,6.0,9.0,45,0.00,,,0.00,WUHU21623XXSP,2013-02-20 07:58:00,
2013-02-20 02:10:00,55.9,34.9,30.24,East,90,4.0,4.0,45,0.00,,,0.00,WUHU21623XXSP,2013-02-20 08:10:00,
2013-02-20 02:15:00,55.9,34.8,30.22,ENE,67,7.0,8.0,45,0.00,,,0.00,WUHU21623XXSP,2013-02-20 08:15:00,
2013-02-20 02:20:00,55.8,34.6,30.22,East,95,4.0,11.0,45,0.00,,,0.00,WUHU21623XXSP,2013-02-20 08:20:00,
2013-02-20 02:21:00,55.8,34.6,30.22,ESE,112,4.0,11.0,45,0.00,,,0.00,WUHU21623XXSP,2013-02-20 08:21:00,
2013-02-20 02:25:00,55.8,35.1,30.22,East,86,4.0,11.0,46,0.00,,,0.00,WUHU21623XXSP,2013-02-20 08:25:00,
2013-02-20 02:26:00,55.8,35.1,30.22,East,90,6.0,8.0,46,0.00,,,0.00,WUHU21623XXSP,2013-02-20 08:26:00,
2013-02-20 02:30:00,55.6,35.0,30.22,ESE,112,8.0,10.0,46,0.00,,,0.00,WUHU21623XXSP,2013-02-20 08:30:00,
2013-02-20 02:31:00,55.6,35.0,30.22,ENE,67,8.0,10.0,46,0.00,,,0.00,WUHU21623XXSP,2013-02-20 08:31:00,
2013-02-20 02:35:00,55.6,35.0,30.20,East,90,7.0,10.0,46,0.00,,,0.00,WUHU21623XXSP,2013-02-20 08:35:00,
2013-02-20 02:36:00,55.6,35.0,30.20,East,97,6.0,10.0,46,0.00,,,0.00,WUHU21623XXSP,2013-02-20 08:36:00,
2013-02-20 02:40:00,55.2,35.2,30.19,ENE,67,5.0,10.0,47,0.02,,,0.02,WUHU21623XXSP,2013-02-20 08:40:00,
2013-02-20 02:41:00,55.2,35.2,30.19,NE,45,10.0,11.0,47,0.02,,,0.02,WUHU21623XXSP,2013-02-20 08:41:00,
2013-02-20 02:42:00,55.2,35.2,30.19,NE,49,8.0,11.0,47,0.02,,,0.02,WUHU21623XXSP,2013-02-20 08:42:00,
2013-02-20 02:45:00,55.0,35.0,30.19,NE,56,6.0,11.0,47,0.02,,,0.02,WUHU21623XXSP,2013-02-20 08:45:00,
2013-02-20 02:46:00,55.0,35.0,30.20,North,0,9.0,11.0,47,0.02,,,0.02,WUHU21623XXSP,2013-02-20 08:46:00,
2013-02-20 02:47:00,54.7,35.4,30.20,NE,50,6.0,11.0,48,0.02,,,0.02,WUHU21623XXSP,2013-02-20 08:47:00,
2013-02-20 02:50:00,54.5,35.1,30.20,NNE,22,5.0,11.0,48,0.04,,,0.04,WUHU21623XXSP,2013-02-20 08:50:00,
2013-02-20 02:51:00,54.3,35.0,30.19,NE,45,5.0,10.0,48,0.04,,,0.04,WUHU21623XXSP,2013-02-20 08:51:00,
2013-02-20 02:52:00,54.3,35.0,30.19,NE,38,4.0,10.0,48,0.04,,,0.04,WUHU21623XXSP,2013-02-20 08:52:00,
2013-02-20 02:55:00,54.3,35.0,30.20,ENE,57,7.0,10.0,48,0.04,,,0.04,WUHU21623XXSP,2013-02-20 08:55:00,
2013-02-20 02:56:00,54.3,35.5,30.20,ENE,64,7.0,10.0,49,0.04,,,0.04,WUHU21623XXSP,2013-02-20 08:56:00,
2013-02-20 02:57:00,54.3,35.5,30.20,ENE,59,6.0,10.0,49,0.04,,,0.04,WUHU21623XXSP,2013-02-20 08:57:00,
2013-02-20 03:00:00,54.1,35.3,30.19,ESE,112,8.0,10.0,49,0.04,,,0.04,WUHU21623XXSP,2013-02-20 09:00:00,
2013-02-20 03:10:00,53.8,35.0,30.19,North,0,0.0,0.0,49,0.04,,,0.04,WUHU21623XXSP,2013-02-20 09:10:00,
2013-02-20 03:15:00,53.8,35.6,30.20,ENE,78,5.0,9.0,50,0.04,,,0.04,WUHU21623XXSP,2013-02-20 09:15:00,
2013-02-20 03:20:00,53.8,35.6,30.20,ENE,67,5.0,9.0,50,0.04,,,0.04,WUHU21623XXSP,2013-02-20 09:20:00,
2013-02-20 03:25:00,53.8,35.6,30.19,ENE,70,3.0,8.0,50,0.04,,,0.04,WUHU21623XXSP,2013-02-20 09:25:00,
2013-02-20 03:30:00,54.0,35.7,30.19,NE,45,4.0,9.0,50,0.04,,,0.04,WUHU21623XXSP,2013-02-20 09:30:00,
2013-02-20 03:31:00,54.0,35.7,30.19,ENE,67,8.0,9.0,50,0.04,,,0.04,WUHU21623XXSP,2013-02-20 09:31:00,
2013-02-20 03:35:00,54.0,35.7,30.19,ENE,67,3.0,9.0,50,0.04,,,0.04,WUHU21623XXSP,2013-02-20 09:35:00,
2013-02-20 03:36:00,54.0,35.7,30.19,ENE,70,3.0,8.0,50,0.04,,,0.04,WUHU21623XXSP,2013-02-20 09:36:00,
2013-02-20 03:40:00,54.0,35.7,30.20,ENE,67,2.0,8.0,50,0.04,,,0.04,WUHU21623XXSP,2013-02-20 09:40:00,
2013-02-20 03:41:00,54.0,35.7,30.20,NE,45,2.0,5.0,50,0.04,,,0.04,WUHU21623XXSP,2013-02-20 09:41:00,
2013-02-20 03:45:00,54.1,35.9,30.21,NE,35,2.0,4.0,50,0.02,,,0.04,WUHU21623XXSP,2013-02-20 09:45:00,
2013-02-20 03:46:00,54.1,35.9,30.21,NE,45,3.0,4.0,50,0.02,,,0.04,WUHU21623XXSP,2013-02-20 09:46:00,
2013-02-20 03:47:00,54.1,35.9,30.21,NNE,30,2.0,4.0,50,0.02,,,0.04,WUHU21623XXSP,2013-02-20 09:47:00,
2013-02-20 03:50:00,54.1,35.9,30.22,NW,315,0.0,4.0,50,0.02,,,0.04,WUHU21623XXSP,2013-02-20 09:50:00,
2013-02-20 03:51:00,54.1,35.9,30.22,NNE,22,0.0,4.0,50,0.02,,,0.04,WUHU21623XXSP,2013-02-20 09:51:00,
2013-02-20 03:52:00,54.1,35.9,30.22,NW,315,0.0,4.0,50,0.02,,,0.04,WUHU21623XXSP,2013-02-20 09:52:00,
2013-02-20 03:56:00,54.0,35.7,30.24,WNW,292,0.0,3.0,50,0.00,,,0.04,WUHU21623XXSP,2013-02-20 09:56:00,
2013-02-20 03:57:00,54.0,35.7,30.24,WNW,292,1.0,2.0,50,0.00,,,0.04,WUHU21623XXSP,2013-02-20 09:57:00,
2013-02-20 04:10:00,54.0,35.7,30.24,NW,315,0.0,0.0,50,0.00,,,0.04,WUHU21623XXSP,2013-02-20 10:10:00,
2013-02-20 04:15:00,53.6,35.9,30.25,NE,45,3.0,3.0,51,0.00,,,0.04,WUHU21623XXSP,2013-02-20 10:15:00,
2013-02-20 04:20:00,53.4,35.7,30.25,NE,39,2.0,5.0,51,0.00,,,0.04,WUHU21623XXSP,2013-02-20 10:20:00,
2013-02-20 04:25:00,53.4,35.7,30.25,NNE,29,4.0,5.0,51,0.00,,,0.04,WUHU21623XXSP,2013-02-20 10:25:00,
2013-02-20 04:30:00,53.4,36.2,30.23,NNE,22,5.0,8.0,52,0.00,,,0.04,WUHU21623XXSP,2013-02-20 10:30:00,
2013-02-20 04:31:00,53.4,36.2,30.23,ENE,67,7.0,8.0,52,0.00,,,0.04,WUHU21623XXSP,2013-02-20 10:31:00,
2013-02-20 04:35:00,53.4,36.2,30.23,NNE,22,3.0,8.0,52,0.00,,,0.04,WUHU21623XXSP,2013-02-20 10:35:00,
2013-02-20 04:36:00,53.4,36.2,30.23,NNW,337,3.0,8.0,52,0.00,,,0.04,WUHU21623XXSP,2013-02-20 10:36:00,
2013-02-20 04:41:00,52.9,35.7,30.23,NE,41,7.0,10.0,52,0.00,,,0.04,WUHU21623XXSP,2013-02-20 10:41:00,
2013-02-20 04:46:00,52.7,36.0,30.21,ENE,67,9.0,11.0,53,0.00,,,0.04,WUHU21623XXSP,2013-02-20 10:46:00,
2013-02-20 04:51:00,52.5,35.8,30.20,East,81,5.0,11.0,53,0.00,,,0.04,WUHU21623XXSP,2013-02-20 10:51:00,
2013-02-20 04:56:00,52.5,36.3,30.21,NE,49,7.0,15.0,54,0.00,,,0.04,WUHU21623XXSP,2013-02-20 10:56:00,
2013-02-20 05:01:00,52.3,36.1,30.21,NE,52,5.0,15.0,54,0.00,,,0.04,WUHU21623XXSP,2013-02-20 11:01:00,
2013-02-20 05:02:00,52.3,36.1,30.21,NE,45,4.0,15.0,54,0.00,,,0.04,WUHU21623XXSP,2013-02-20 11:02:00,
2013-02-20 05:06:00,52.2,36.4,30.20,NE,47,6.0,12.0,55,0.00,,,0.04,WUHU21623XXSP,2013-02-20 11:06:00,
2013-02-20 05:07:00,52.2,36.4,30.20,NE,55,7.0,12.0,55,0.00,,,0.04,WUHU21623XXSP,2013-02-20 11:07:00,
2013-02-20 05:11:00,52.0,36.2,30.18,NE,45,11.0,12.0,55,0.00,,,0.04,WUHU21623XXSP,2013-02-20 11:11:00,
2013-02-20 05:12:00,51.8,36.0,30.17,ENE,65,8.0,12.0,55,0.00,,,0.04,WUHU21623XXSP,2013-02-20 11:12:00,
2013-02-20 05:16:00,51.6,35.9,30.18,ENE,59,8.0,15.0,55,0.00,,,0.04,WUHU21623XXSP,2013-02-20 11:16:00,
2013-02-20 05:17:00,51.6,35.9,30.18,East,90,11.0,15.0,55,0.00,,,0.04,WUHU21623XXSP,2013-02-20 11:17:00,
2013-02-20 05:22:00,51.6,35.9,30.18,ENE,67,9.0,15.0,55,0.00,,,0.04,WUHU21623XXSP,2013-02-20 11:22:00,
2013-02-20 05:27:00,51.4,35.7,30.17,ENE,67,12.0,13.0,55,0.00,,,0.04,WUHU21623XXSP,2013-02-20 11:27:00,
2013-02-20 05:28:00,51.4,36.2,30.17,ENE,74,8.0,13.0,56,0.00,,,0.04,WUHU21623XXSP,2013-02-20 11:28:00,
2013-02-20 05:32:00,51.1,35.9,30.18,NE,45,11.0,15.0,56,0.00,,,0.04,WUHU21623XXSP,2013-02-20 11:32:00,
2013-02-20 05:33:00,51.1,35.9,30.18,ENE,67,11.0,15.0,56,0.00,,,0.04,WUHU21623XXSP,2013-02-20 11:33:00,
2013-02-20 05:37:00,51.1,36.0,30.17,ENE,71,9.0,15.0,56,0.00,,,0.04,WUHU21623XXSP,2013-02-20 11:37:00,
2013-02-20 05:38:00,51.1,35.9,30.17,ENE,74,8.0,15.0,56,0.00,,,0.04,WUHU21623XXSP,2013-02-20 11:38:00,
2013-02-20 05:42:00,51.3,36.0,30.16,East,79,12.0,17.0,56,0.00,,,0.04,WUHU21623XXSP,2013-02-20 11:42:00,
2013-02-20 05:43:00,51.3,36.0,30.16,East,82,11.0,17.0,56,0.00,,,0.04,WUHU21623XXSP,2013-02-20 11:43:00,
2013-02-20 05:47:00,51.4,36.3,30.15,East,87,10.0,17.0,56,0.00,,,0.04,WUHU21623XXSP,2013-02-20 11:47:00,
2013-02-20 05:48:00,51.4,36.2,30.15,ENE,67,10.0,17.0,56,0.00,,,0.04,WUHU21623XXSP,2013-02-20 11:48:00,
2013-02-20 05:52:00,51.4,35.7,30.16,NE,45,9.0,15.0,55,0.00,,,0.04,WUHU21623XXSP,2013-02-20 11:52:00,
2013-02-20 05:53:00,51.4,35.7,30.16,ENE,67,13.0,15.0,55,0.00,,,0.04,WUHU21623XXSP,2013-02-20 11:53:00,
2013-02-20 05:58:00,51.4,35.7,30.17,ENE,67,7.0,15.0,55,0.00,,,0.04,WUHU21623XXSP,2013-02-20 11:58:00,
2013-02-20 06:03:00,51.4,35.7,30.19,ENE,67,6.0,13.0,55,0.00,,,0.04,WUHU21623XXSP,2013-02-20 12:03:00,
2013-02-20 06:08:00,51.4,35.7,30.21,NNE,27,3.0,11.0,55,0.00,,,0.04,WUHU21623XXSP,2013-02-20 12:08:00,
2013-02-20 06:13:00,51.4,35.7,30.21,NE,45,10.0,10.0,55,0.00,,,0.04,WUHU21623XXSP,2013-02-20 12:13:00,
2013-02-20 06:18:00,51.4,35.7,30.19,NE,45,10.0,12.0,55,0.00,,,0.04,WUHU21623XXSP,2013-02-20 12:18:00,
2013-02-20 06:19:00,51.4,35.7,30.19,ENE,63,8.0,12.0,55,0.00,,,0.04,WUHU21623XXSP,2013-02-20 12:19:00,
2013-02-20 06:23:00,51.4,35.7,30.19,ENE,76,7.0,12.0,55,0.00,,,0.04,WUHU21623XXSP,2013-02-20 12:23:00,
2013-02-20 06:24:00,51.4,35.7,30.19,ENE,72,6.0,12.0,55,0.00,,,0.04,WUHU21623XXSP,2013-02-20 12:24:00,
2013-02-20 06:28:00,51.4,35.7,30.15,ENE,67,16.0,16.0,55,0.02,,,0.06,WUHU21623XXSP,2013-02-20 12:28:00,
2013-02-20 06:29:00,51.4,35.7,30.15,ESE,112,20.0,20.0,55,0.02,,,0.06,WUHU21623XXSP,2013-02-20 12:29:00,
2013-02-20 06:33:00,51.4,35.7,30.15,East,86,14.0,21.0,55,0.02,,,0.06,WUHU21623XXSP,2013-02-20 12:33:00,
2013-02-20 06:34:00,51.4,35.7,30.15,East,92,16.0,21.0,55,0.02,,,0.06,WUHU21623XXSP,2013-02-20 12:34:00,
2013-02-20 06:38:00,51.4,35.7,30.16,ESE,102,9.0,21.0,55,0.02,,,0.06,WUHU21623XXSP,2013-02-20 12:38:00,
2013-02-20 06:39:00,51.4,35.7,30.16,SE,135,12.0,21.0,55,0.02,,,0.06,WUHU21623XXSP,2013-02-20 12:39:00,
2013-02-20 06:43:00,51.4,35.7,30.16,East,89,13.0,17.0,55,0.02,,,0.06,WUHU21623XXSP,2013-02-20 12:43:00,
2013-02-20 06:44:00,51.4,35.7,30.16,East,99,11.0,17.0,55,0.02,,,0.06,WUHU21623XXSP,2013-02-20 12:44:00,
2013-02-20 06:48:00,51.4,35.7,30.18,East,90,15.0,17.0,55,0.02,,,0.06,WUHU21623XXSP,2013-02-20 12:48:00,
2013-02-20 06:49:00,51.4,35.7,30.18,East,88,9.0,17.0,55,0.02,,,0.06,WUHU21623XXSP,2013-02-20 12:49:00,
2013-02-20 06:53:00,51.4,35.7,30.18,East,88,7.0,15.0,55,0.02,,,0.06,WUHU21623XXSP,2013-02-20 12:53:00,
2013-02-20 06:54:00,51.4,35.7,30.18,East,90,10.0,15.0,55,0.02,,,0.06,WUHU21623XXSP,2013-02-20 12:54:00,
2013-02-20 06:58:00,51.4,35.7,30.17,East,90,9.0,12.0,55,0.02,,,0.06,WUHU21623XXSP,2013-02-20 12:58:00,
2013-02-20 06:59:00,51.4,35.7,30.17,East,90,10.0,12.0,55,0.02,,,0.06,WUHU21623XXSP,2013-02-20 12:59:00,
2013-02-20 07:00:00,51.4,35.7,30.17,East,88,10.0,20.0,55,0.02,,,0.06,WUHU21623XXSP,2013-02-20 13:00:00,
2013-02-20 07:03:00,51.4,35.7,30.17,ESE,112,11.0,20.0,55,0.02,,,0.06,WUHU21623XXSP,2013-02-20 13:03:00,
2013-02-20 07:04:00,51.4,35.7,30.17,ENE,67,10.0,20.0,55,0.02,,,0.06,WUHU21623XXSP,2013-02-20 13:04:00,
2013-02-20 07:05:00,51.3,35.7,30.17,East,90,11.0,20.0,55,0.02,,,0.06,WUHU21623XXSP,2013-02-20 13:05:00,
2013-02-20 07:08:00,51.3,35.6,30.17,East,90,10.0,20.0,55,0.02,,,0.06,WUHU21623XXSP,2013-02-20 13:08:00,
2013-02-20 07:09:00,51.3,35.6,30.17,ENE,67,16.0,16.0,55,0.02,,,0.06,WUHU21623XXSP,2013-02-20 13:09:00,
2013-02-20 07:10:00,51.3,35.6,30.17,East,90,13.0,16.0,55,0.02,,,0.06,WUHU21623XXSP,2013-02-20 13:10:00,
2013-02-20 07:13:00,51.3,35.6,30.17,East,90,10.0,16.0,55,0.02,,,0.06,WUHU21623XXSP,2013-02-20 13:13:00,
2013-02-20 07:14:00,51.3,35.6,30.17,East,90,16.0,16.0,55,0.02,,,0.06,WUHU21623XXSP,2013-02-20 13:14:00,
2013-02-20 07:15:00,51.3,35.6,30.17,East,97,11.0,16.0,55,0.02,,,0.06,WUHU21623XXSP,2013-02-20 13:15:00,
2013-02-20 07:18:00,51.3,35.6,30.18,ESE,112,9.0,17.0,55,0.02,,,0.06,WUHU21623XXSP,2013-02-20 13:18:00,
2013-02-20 07:19:00,51.3,35.6,30.18,ENE,67,12.0,17.0,55,0.02,,,0.06,WUHU21623XXSP,2013-02-20 13:19:00,
2013-02-20 07:20:00,51.3,35.6,30.18,East,91,10.0,17.0,55,0.02,,,0.06,WUHU21623XXSP,2013-02-20 13:20:00,
2013-02-20 07:24:00,51.3,35.6,30.17,ESE,109,12.0,17.0,55,0.02,,,0.06,WUHU21623XXSP,2013-02-20 13:24:00,
2013-02-20 07:25:00,51.3,35.6,30.16,SE,135,11.0,17.0,55,0.00,,,0.06,WUHU21623XXSP,2013-02-20 13:25:00,
2013-02-20 07:29:00,51.3,35.6,30.16,East,90,11.0,17.0,55,0.00,,,0.06,WUHU21623XXSP,2013-02-20 13:29:00,
2013-02-20 07:30:00,51.3,35.6,30.17,East,90,8.0,17.0,55,0.00,,,0.06,WUHU21623XXSP,2013-02-20 13:30:00,
2013-02-20 07:31:00,51.3,35.6,30.18,NE,45,9.0,17.0,55,0.00,,,0.06,WUHU21623XXSP,2013-02-20 13:31:00,
2013-02-20 07:34:00,51.1,35.4,30.19,NE,51,7.0,13.0,55,0.00,,,0.06,WUHU21623XXSP,2013-02-20 13:34:00,
2013-02-20 07:35:00,51.1,35.4,30.20,ENE,60,4.0,13.0,55,0.00,,,0.06,WUHU21623XXSP,2013-02-20 13:35:00,
2013-02-20 07:37:00,51.1,35.4,30.20,NNE,22,6.0,13.0,55,0.00,,,0.06,WUHU21623XXSP,2013-02-20 13:37:00,
2013-02-20 07:39:00,51.1,35.4,30.20,NNE,33,7.0,13.0,55,0.00,,,0.06,WUHU21623XXSP,2013-02-20 13:39:00,
2013-02-20 07:40:00,51.1,35.4,30.20,NE,45,9.0,13.0,55,0.00,,,0.06,WUHU21623XXSP,2013-02-20 13:40:00,
2013-02-20 07:42:00,51.1,35.4,30.20,ENE,67,7.0,10.0,55,0.00,,,0.06,WUHU21623XXSP,2013-02-20 13:42:00,
2013-02-20 07:44:00,51.1,35.4,30.20,NE,53,5.0,11.0,55,0.00,,,0.06,WUHU21623XXSP,2013-02-20 13:44:00,
2013-02-20 07:45:00,51.1,35.4,30.20,ENE,67,6.0,11.0,55,0.00,,,0.06,WUHU21623XXSP,2013-02-20 13:45:00,
2013-02-20 07:47:00,51.1,35.4,30.23,NNW,337,3.0,11.0,55,0.00,,,0.06,WUHU21623XXSP,2013-02-20 13:47:00,
2013-02-20 07:49:00,51.1,35.4,30.23,ENE,67,7.0,11.0,55,0.00,,,0.06,WUHU21623XXSP,2013-02-20 13:49:00,
2013-02-20 07:50:00,51.1,35.4,30.23,ENE,67,6.0,11.0,55,0.00,,,0.06,WUHU21623XXSP,2013-02-20 13:50:00,
2013-02-20 07:51:00,51.1,35.0,30.22,ENE,70,6.0,11.0,54,0.00,,,0.06,WUHU21623XXSP,2013-02-20 13:51:00,
2013-02-20 07:52:00,51.1,35.4,30.21,East,90,9.0,10.0,55,0.00,,,0.06,WUHU21623XXSP,2013-02-20 13:52:00,
2013-02-20 07:54:00,51.1,35.4,30.21,East,90,9.0,13.0,55,0.00,,,0.06,WUHU21623XXSP,2013-02-20 13:54:00,
2013-02-20 07:55:00,51.1,35.4,30.21,East,99,8.0,13.0,55,0.00,,,0.06,WUHU21623XXSP,2013-02-20 13:55:00,
2013-02-20 07:56:00,51.1,35.4,30.21,East,87,6.0,13.0,55,0.00,,,0.06,WUHU21623XXSP,2013-02-20 13:56:00,
2013-02-20 07:58:00,51.3,35.6,30.22,NE,43,7.0,13.0,55,0.00,,,0.06,WUHU21623XXSP,2013-02-20 13:58:00,
2013-02-20 08:00:00,51.1,35.4,30.23,NE,50,5.0,13.0,55,0.00,,,0.06,WUHU21623XXSP,2013-02-20 14:00:00,
2013-02-20 08:01:00,51.1,35.4,30.22,ENE,67,7.0,13.0,55,0.00,,,0.06,WUHU21623XXSP,2013-02-20 14:01:00,
2013-02-20 08:03:00,51.1,35.4,30.22,NE,52,4.0,13.0,55,0.00,,,0.06,WUHU21623XXSP,2013-02-20 14:03:00,
2013-02-20 08:05:00,51.1,35.4,30.23,NE,45,6.0,11.0,55,0.00,,,0.06,WUHU21623XXSP,2013-02-20 14:05:00,
2013-02-20 08:06:00,50.9,35.2,30.23,NE,38,4.0,11.0,55,0.00,,,0.06,WUHU21623XXSP,2013-02-20 14:06:00,
2013-02-20 08:08:00,50.9,35.2,30.24,NNE,22,7.0,8.0,55,0.00,,,0.06,WUHU21623XXSP,2013-02-20 14:08:00,
2013-02-20 08:10:00,50.9,35.7,30.25,NNE,22,4.0,8.0,56,0.00,,,0.06,WUHU21623XXSP,2013-02-20 14:10:00,
2013-02-20 08:11:00,50.7,35.5,30.26,NW,315,4.0,8.0,56,0.00,,,0.06,WUHU21623XXSP,2013-02-20 14:11:00,
2013-02-20 08:13:00,50.7,35.5,30.26,NW,315,6.0,8.0,56,0.00,,,0.06,WUHU21623XXSP,2013-02-20 14:13:00,
2013-02-20 08:15:00,50.5,35.4,30.27,NNW,340,4.0,8.0,56,0.00,,,0.06,WUHU21623XXSP,2013-02-20 14:15:00,
2013-02-20 08:16:00,50.4,35.2,30.27,NNW,336,4.0,8.0,56,0.00,,,0.06,WUHU21623XXSP,2013-02-20 14:16:00,
2013-02-20 08:18:00,50.2,35.0,30.27,North,358,3.0,8.0,56,0.00,,,0.06,WUHU21623XXSP,2013-02-20 14:18:00,
2013-02-20 08:20:00,50.2,35.5,30.27,NNE,22,4.0,7.0,57,0.00,,,0.06,WUHU21623XXSP,2013-02-20 14:20:00,
2013-02-20 08:21:00,49.8,35.1,30.26,North,0,5.0,7.0,57,0.00,,,0.06,WUHU21623XXSP,2013-02-20 14:21:00,
2013-02-20 08:23:00,49.8,35.1,30.26,NNE,22,5.0,7.0,57,0.00,,,0.06,WUHU21623XXSP,2013-02-20 14:23:00,
2013-02-20 08:25:00,49.8,35.1,30.26,NE,45,6.0,7.0,57,0.00,,,0.06,WUHU21623XXSP,2013-02-20 14:25:00,
2013-02-20 08:26:00,49.8,35.6,30.25,NE,34,5.0,7.0,58,0.00,,,0.06,WUHU21623XXSP,2013-02-20 14:26:00,
2013-02-20 08:28:00,49.6,35.4,30.26,NNE,22,6.0,9.0,58,0.00,,,0.06,WUHU21623XXSP,2013-02-20 14:28:00,
2013-02-20 08:30:00,49.8,35.6,30.26,NNE,16,4.0,9.0,58,0.00,,,0.06,WUHU21623XXSP,2013-02-20 14:30:00,
2013-02-20 08:31:00,49.8,35.6,30.26,NNE,16,4.0,9.0,58,0.00,,,0.06,WUHU21623XXSP,2013-02-20 14:31:00,
2013-02-20 08:33:00,49.8,35.6,30.25,NNE,22,10.0,10.0,58,0.00,,,0.06,WUHU21623XXSP,2013-02-20 14:33:00,
2013-02-20 08:36:00,49.6,35.4,30.24,NNE,22,8.0,10.0,58,0.00,,,0.06,WUHU21623XXSP,2013-02-20 14:36:00,
2013-02-20 08:38:00,49.6,35.4,30.24,NE,43,7.0,10.0,58,0.00,,,0.06,WUHU21623XXSP,2013-02-20 14:38:00,
2013-02-20 08:41:00,49.6,35.4,30.24,NNE,22,6.0,12.0,58,0.00,,,0.06,WUHU21623XXSP,2013-02-20 14:41:00,
2013-02-20 08:42:00,49.6,35.9,30.24,NNE,22,12.0,12.0,59,0.00,,,0.06,WUHU21623XXSP,2013-02-20 14:42:00,
2013-02-20 08:44:00,49.6,35.4,30.24,NNE,31,6.0,12.0,58,0.00,,,0.06,WUHU21623XXSP,2013-02-20 14:44:00,
2013-02-20 08:46:00,49.6,35.4,30.23,NE,43,7.0,12.0,58,0.00,,,0.06,WUHU21623XXSP,2013-02-20 14:46:00,
2013-02-20 08:47:00,49.6,35.9,30.23,ENE,67,8.0,12.0,59,0.00,,,0.06,WUHU21623XXSP,2013-02-20 14:47:00,
2013-02-20 08:49:00,49.6,35.9,30.23,ENE,67,12.0,12.0,59,0.00,,,0.06,WUHU21623XXSP,2013-02-20 14:49:00,
2013-02-20 08:51:00,49.6,35.9,30.23,ENE,63,8.0,12.0,59,0.00,,,0.06,WUHU21623XXSP,2013-02-20 14:51:00,
2013-02-20 08:52:00,49.6,35.9,30.23,ENE,60,7.0,12.0,59,0.00,,,0.06,WUHU21623XXSP,2013-02-20 14:52:00,
2013-02-20 08:54:00,49.6,35.9,30.24,ENE,66,7.0,12.0,59,0.00,,,0.06,WUHU21623XXSP,2013-02-20 14:54:00,
2013-02-20 08:56:00,49.6,35.9,30.24,NE,44,10.0,13.0,59,0.00,,,0.06,WUHU21623XXSP,2013-02-20 14:56:00,
2013-02-20 08:57:00,49.6,35.9,30.24,NE,44,8.0,13.0,59,0.00,,,0.06,WUHU21623XXSP,2013-02-20 14:57:00,
2013-02-20 09:00:00,49.6,35.9,30.24,ENE,67,8.0,13.0,59,0.00,,,0.06,WUHU21623XXSP,2013-02-20 15:00:00,
2013-02-20 09:01:00,49.6,35.9,30.24,NNE,22,8.0,13.0,59,0.00,,,0.06,WUHU21623XXSP,2013-02-20 15:01:00,
2013-02-20 09:02:00,49.6,35.9,30.24,NE,35,6.0,13.0,59,0.00,,,0.06,WUHU21623XXSP,2013-02-20 15:02:00,
2013-02-20 09:05:00,49.5,36.2,30.23,ENE,67,9.0,13.0,60,0.00,,,0.06,WUHU21623XXSP,2013-02-20 15:05:00,
2013-02-20 09:06:00,49.3,36.0,30.23,NE,53,8.0,13.0,60,0.00,,,0.06,WUHU21623XXSP,2013-02-20 15:06:00,
2013-02-20 09:07:00,49.3,36.2,30.23,NE,53,8.0,13.0,60,0.00,,,0.06,WUHU21623XXSP,2013-02-20 15:07:00,
2013-02-20 09:10:00,49.3,36.0,30.22,NE,45,13.0,13.0,60,0.00,,,0.06,WUHU21623XXSP,2013-02-20 15:10:00,
2013-02-20 09:12:00,49.3,36.0,30.22,NE,45,9.0,13.0,60,0.00,,,0.06,WUHU21623XXSP,2013-02-20 15:12:00,
2013-02-20 09:16:00,49.3,36.0,30.21,NE,42,8.0,16.0,60,0.00,,,0.06,WUHU21623XXSP,2013-02-20 15:16:00,
2013-02-20 09:17:00,49.3,36.0,30.21,ENE,67,11.0,16.0,60,0.00,,,0.06,WUHU21623XXSP,2013-02-20 15:17:00,
2013-02-20 09:18:00,49.3,36.0,30.21,NE,56,9.0,16.0,60,0.00,,,0.06,WUHU21623XXSP,2013-02-20 15:18:00,
2013-02-20 09:21:00,49.3,36.0,30.20,NE,45,11.0,16.0,60,0.00,,,0.06,WUHU21623XXSP,2013-02-20 15:21:00,
2013-02-20 09:22:00,49.3,36.0,30.20,ENE,67,9.0,16.0,60,0.00,,,0.06,WUHU21623XXSP,2013-02-20 15:22:00,
2013-02-20 09:23:00,49.3,36.0,30.20,ENE,67,9.0,16.0,60,0.00,,,0.06,WUHU21623XXSP,2013-02-20 15:23:00,
2013-02-20 09:26:00,49.3,36.0,30.25,ENE,63,7.0,15.0,60,0.00,,,0.06,WUHU21623XXSP,2013-02-20 15:26:00,
2013-02-20 09:27:00,49.3,36.0,30.25,NE,45,2.0,15.0,60,0.00,,,0.06,WUHU21623XXSP,2013-02-20 15:27:00,
2013-02-20 09:28:00,49.3,36.0,30.26,North,0,5.0,15.0,60,0.00,,,0.06,WUHU21623XXSP,2013-02-20 15:28:00,
2013-02-20 09:31:00,49.3,36.4,30.25,NE,49,6.0,15.0,61,0.00,,,0.06,WUHU21623XXSP,2013-02-20 15:31:00,
2013-02-20 09:32:00,49.3,36.0,30.25,NE,50,5.0,15.0,60,0.00,,,0.06,WUHU21623XXSP,2013-02-20 15:32:00,
2013-02-20 09:33:00,49.3,36.4,30.25,NNE,22,7.0,15.0,61,0.02,,,0.08,WUHU21623XXSP,2013-02-20 15:33:00,
2013-02-20 09:37:00,49.6,36.7,30.23,NE,45,6.0,10.0,61,0.02,,,0.08,WUHU21623XXSP,2013-02-20 15:37:00,
2013-02-20 09:38:00,49.6,36.7,30.23,ENE,67,10.0,10.0,61,0.02,,,0.08,WUHU21623XXSP,2013-02-20 15:38:00,
2013-02-20 09:39:00,49.6,36.7,30.23,ENE,68,8.0,10.0,61,0.02,,,0.08,WUHU21623XXSP,2013-02-20 15:39:00,
2013-02-20 09:42:00,49.6,36.7,30.23,NE,45,9.0,10.0,61,0.02,,,0.08,WUHU21623XXSP,2013-02-20 15:42:00,
2013-02-20 09:43:00,49.8,36.9,30.23,ENE,71,6.0,10.0,61,0.02,,,0.08,WUHU21623XXSP,2013-02-20 15:43:00,
2013-02-20 09:44:00,49.8,36.9,30.23,NE,45,10.0,10.0,61,0.02,,,0.08,WUHU21623XXSP,2013-02-20 15:44:00,
2013-02-20 09:47:00,49.8,36.9,30.23,East,90,7.0,10.0,61,0.02,,,0.08,WUHU21623XXSP,2013-02-20 15:47:00,
2013-02-20 09:49:00,49.8,36.9,30.23,East,90,10.0,10.0,61,0.02,,,0.08,WUHU21623XXSP,2013-02-20 15:49:00,
2013-02-20 09:52:00,49.8,36.9,30.21,East,95,11.0,16.0,61,0.02,,,0.08,WUHU21623XXSP,2013-02-20 15:52:00,
2013-02-20 09:54:00,49.8,36.9,30.21,East,87,10.0,16.0,61,0.02,,,0.08,WUHU21623XXSP,2013-02-20 15:54:00,
2013-02-20 09:57:00,49.8,36.9,30.20,East,90,9.0,16.0,61,0.02,,,0.08,WUHU21623XXSP,2013-02-20 15:57:00,
2013-02-20 09:59:00,50.0,37.1,30.20,East,90,11.0,16.0,61,0.02,,,0.08,WUHU21623XXSP,2013-02-20 15:59:00,
2013-02-20 10:02:00,50.2,37.2,30.20,East,89,10.0,16.0,61,0.04,,,0.10,WUHU21623XXSP,2013-02-20 16:02:00,
2013-02-20 10:04:00,50.2,37.4,30.19,East,84,10.0,16.0,61,0.04,,,0.10,WUHU21623XXSP,2013-02-20 16:04:00,
2013-02-20 10:07:00,50.2,37.2,30.18,East,93,11.0,18.0,61,0.04,,,0.10,WUHU21623XXSP,2013-02-20 16:07:00,
2013-02-20 10:08:00,50.2,37.2,30.18,East,93,11.0,18.0,61,0.04,,,0.10,WUHU21623XXSP,2013-02-20 16:08:00,
2013-02-20 10:09:00,50.2,37.6,30.19,East,90,11.0,18.0,62,0.04,,,0.10,WUHU21623XXSP,2013-02-20 16:09:00,
2013-02-20 10:10:00,50.2,37.6,30.19,East,80,10.0,18.0,62,0.04,,,0.10,WUHU21623XXSP,2013-02-20 16:10:00,
2013-02-20 10:13:00,50.2,37.6,30.19,ENE,67,15.0,18.0,62,0.04,,,0.10,WUHU21623XXSP,2013-02-20 16:13:00,
2013-02-20 10:15:00,50.2,37.6,30.19,ENE,67,11.0,18.0,62,0.04,,,0.10,WUHU21623XXSP,2013-02-20 16:15:00,
2013-02-20 10:18:00,50.4,37.8,30.20,NE,45,16.0,17.0,62,0.04,,,0.10,WUHU21623XXSP,2013-02-20 16:18:00,
2013-02-20 10:20:00,50.4,37.8,30.20,ENE,68,10.0,17.0,62,0.04,,,0.10,WUHU21623XXSP,2013-02-20 16:20:00,
2013-02-20 10:23:00,50.4,38.2,30.19,East,90,10.0,19.0,63,0.04,,,0.10,WUHU21623XXSP,2013-02-20 16:23:00,
2013-02-20 10:25:00,50.4,38.2,30.19,ENE,67,14.0,19.0,63,0.04,,,0.10,WUHU21623XXSP,2013-02-20 16:25:00,
2013-02-20 10:28:00,50.4,38.2,30.18,ENE,64,10.0,19.0,63,0.04,,,0.10,WUHU21623XXSP,2013-02-20 16:28:00,
2013-02-20 10:30:00,50.4,38.2,30.19,ENE,67,10.0,20.0,63,0.04,,,0.10,WUHU21623XXSP,2013-02-20 16:30:00,
2013-02-20 10:33:00,50.4,38.2,30.20,East,80,11.0,20.0,63,0.02,,,0.10,WUHU21623XXSP,2013-02-20 16:33:00,
2013-02-20 10:35:00,50.4,38.2,30.19,ENE,77,9.0,20.0,63,0.02,,,0.10,WUHU21623XXSP,2013-02-20 16:35:00,
2013-02-20 10:38:00,50.4,38.2,30.19,East,100,11.0,20.0,63,0.02,,,0.10,WUHU21623XXSP,2013-02-20 16:38:00,
2013-02-20 10:40:00,50.5,38.4,30.19,East,91,11.0,16.0,63,0.02,,,0.10,WUHU21623XXSP,2013-02-20 16:40:00,
2013-02-20 10:41:00,50.5,38.4,30.19,East,80,10.0,16.0,63,0.02,,,0.10,WUHU21623XXSP,2013-02-20 16:41:00,
2013-02-20 10:43:00,50.5,38.4,30.19,ENE,67,11.0,19.0,63,0.02,,,0.10,WUHU21623XXSP,2013-02-20 16:43:00,
2013-02-20 10:45:00,50.7,38.5,30.19,ENE,63,9.0,19.0,63,0.02,,,0.10,WUHU21623XXSP,2013-02-20 16:45:00,
2013-02-20 10:46:00,50.7,38.5,30.19,ENE,67,11.0,19.0,63,0.02,,,0.10,WUHU21623XXSP,2013-02-20 16:46:00,
2013-02-20 10:48:00,50.7,38.5,30.18,SE,135,16.0,20.0,63,0.02,,,0.10,WUHU21623XXSP,2013-02-20 16:48:00,
2013-02-20 10:50:00,50.7,38.5,30.18,East,89,14.0,20.0,63,0.02,,,0.10,WUHU21623XXSP,2013-02-20 16:50:00,
2013-02-20 10:51:00,50.7,38.5,30.18,ENE,78,12.0,20.0,63,0.02,,,0.10,WUHU21623XXSP,2013-02-20 16:51:00,
2013-02-20 10:53:00,50.5,38.5,30.18,East,82,10.0,20.0,63,0.02,,,0.10,WUHU21623XXSP,2013-02-20 16:53:00,
2013-02-20 10:54:00,50.5,38.4,30.18,ENE,67,10.0,20.0,63,0.02,,,0.10,WUHU21623XXSP,2013-02-20 16:54:00,
2013-02-20 10:55:00,50.5,38.4,30.18,East,90,13.0,20.0,63,0.02,,,0.10,WUHU21623XXSP,2013-02-20 16:55:00,
2013-02-20 10:56:00,50.5,38.4,30.18,East,87,12.0,20.0,63,0.02,,,0.10,WUHU21623XXSP,2013-02-20 16:56:00,
2013-02-20 10:59:00,50.7,38.5,30.18,East,81,12.0,17.0,63,0.02,,,0.10,WUHU21623XXSP,2013-02-20 16:59:00,
2013-02-20 11:00:00,50.7,38.7,30.18,East,79,14.0,20.0,63,0.00,,,0.10,WUHU21623XXSP,2013-02-20 17:00:00,
2013-02-20 11:01:00,50.7,38.5,30.17,East,83,14.0,20.0,63,0.00,,,0.10,WUHU21623XXSP,2013-02-20 17:01:00,
2013-02-20 11:04:00,50.7,38.5,30.18,NE,45,9.0,20.0,63,0.00,,,0.10,WUHU21623XXSP,2013-02-20 17:04:00,
2013-02-20 11:05:00,50.7,38.5,30.18,East,90,15.0,20.0,63,0.00,,,0.10,WUHU21623XXSP,2013-02-20 17:05:00,
2013-02-20 11:06:00,50.7,38.5,30.18,East,87,9.0,20.0,63,0.00,,,0.10,WUHU21623XXSP,2013-02-20 17:06:00,
2013-02-20 11:09:00,50.7,38.5,30.17,East,90,22.0,22.0,63,0.02,,,0.12,WUHU21623XXSP,2013-02-20 17:09:00,
2013-02-20 11:10:00,50.7,38.5,30.17,East,93,15.0,22.0,63,0.02,,,0.12,WUHU21623XXSP,2013-02-20 17:10:00,
2013-02-20 11:11:00,50.7,38.5,30.17,East,85,13.0,22.0,63,0.02,,,0.12,WUHU21623XXSP,2013-02-20 17:11:00,
2013-02-20 11:14:00,50.7,38.5,30.17,ENE,67,11.0,22.0,63,0.02,,,0.12,WUHU21623XXSP,2013-02-20 17:14:00,
2013-02-20 11:15:00,50.5,38.4,30.17,East,90,8.0,22.0,63,0.02,,,0.12,WUHU21623XXSP,2013-02-20 17:15:00,
2013-02-20 11:16:00,50.5,38.4,30.17,East,90,9.0,22.0,63,0.02,,,0.12,WUHU21623XXSP,2013-02-20 17:16:00,
2013-02-20 11:19:00,50.5,38.4,30.17,ENE,67,9.0,15.0,63,0.02,,,0.12,WUHU21623XXSP,2013-02-20 17:19:00,
2013-02-20 11:20:00,50.5,38.4,30.17,ENE,60,10.0,13.0,63,0.02,,,0.12,WUHU21623XXSP,2013-02-20 17:20:00,
2013-02-20 11:21:00,50.5,38.4,30.17,East,80,10.0,13.0,63,0.02,,,0.12,WUHU21623XXSP,2013-02-20 17:21:00,
2013-02-20 11:24:00,50.5,38.4,30.17,East,88,9.0,16.0,63,0.02,,,0.12,WUHU21623XXSP,2013-02-20 17:24:00,
2013-02-20 11:25:00,50.5,38.5,30.17,East,86,9.0,16.0,63,0.02,,,0.12,WUHU21623XXSP,2013-02-20 17:25:00,
2013-02-20 11:26:00,50.5,38.4,30.17,East,90,12.0,16.0,63,0.02,,,0.12,WUHU21623XXSP,2013-02-20 17:26:00,
2013-02-20 11:30:00,50.5,38.4,30.16,ENE,76,12.0,16.0,63,0.02,,,0.12,WUHU21623XXSP,2013-02-20 17:30:00,
2013-02-20 11:31:00,50.7,38.5,30.16,East,90,13.0,16.0,63,0.02,,,0.12,WUHU21623XXSP,2013-02-20 17:31:00,
2013-02-20 11:35:00,50.7,38.5,30.15,East,90,10.0,21.0,63,0.02,,,0.12,WUHU21623XXSP,2013-02-20 17:35:00,
2013-02-20 11:36:00,50.7,38.5,30.15,ENE,67,12.0,21.0,63,0.02,,,0.12,WUHU21623XXSP,2013-02-20 17:36:00,
2013-02-20 11:40:00,50.7,38.1,30.15,East,90,23.0,23.0,62,0.02,,,0.12,WUHU21623XXSP,2013-02-20 17:40:00,
2013-02-20 11:41:00,50.7,38.1,30.15,East,88,15.0,23.0,62,0.02,,,0.12,WUHU21623XXSP,2013-02-20 17:41:00,
2013-02-20 11:42:00,50.7,38.1,30.15,ESE,112,16.0,23.0,62,0.02,,,0.12,WUHU21623XXSP,2013-02-20 17:42:00,
2013-02-20 11:45:00,50.7,38.1,30.15,East,96,14.0,23.0,62,0.02,,,0.12,WUHU21623XXSP,2013-02-20 17:45:00,
2013-02-20 11:46:00,50.7,38.1,30.15,East,98,15.0,23.0,62,0.02,,,0.12,WUHU21623XXSP,2013-02-20 17:46:00,
2013-02-20 11:47:00,50.7,38.1,30.15,ESE,104,16.0,23.0,62,0.02,,,0.12,WUHU21623XXSP,2013-02-20 17:47:00,
2013-02-20 11:50:00,50.5,38.0,30.15,East,89,12.0,21.0,62,0.02,,,0.12,WUHU21623XXSP,2013-02-20 17:50:00,
2013-02-20 11:51:00,50.5,38.0,30.15,ENE,67,10.0,20.0,62,0.02,,,0.12,WUHU21623XXSP,2013-02-20 17:51:00,
2013-02-20 11:52:00,50.5,38.0,30.15,ENE,67,13.0,20.0,62,0.02,,,0.12,WUHU21623XXSP,2013-02-20 17:52:00,
2013-02-20 11:55:00,50.5,38.0,30.14,East,87,14.0,18.0,62,0.02,,,0.12,WUHU21623XXSP,2013-02-20 17:55:00,
2013-02-20 11:56:00,50.5,38.0,30.14,East,91,10.0,18.0,62,0.02,,,0.12,WUHU21623XXSP,2013-02-20 17:56:00,
2013-02-20 11:57:00,50.5,38.0,30.15,East,101,11.0,18.0,62,0.02,,,0.12,WUHU21623XXSP,2013-02-20 17:57:00,
2013-02-20 12:00:00,50.4,37.8,30.14,East,98,12.0,19.0,62,0.02,,,0.12,WUHU21623XXSP,2013-02-20 18:00:00,
2013-02-20 12:01:00,50.4,37.8,30.14,ESE,112,22.0,22.0,62,0.02,,,0.12,WUHU21623XXSP,2013-02-20 18:01:00,
2013-02-20 12:02:00,50.4,37.8,30.14,East,97,12.0,22.0,62,0.02,,,0.12,WUHU21623XXSP,2013-02-20 18:02:00,
2013-02-20 12:05:00,50.4,37.8,30.14,East,96,14.0,22.0,62,0.00,,,0.12,WUHU21623XXSP,2013-02-20 18:05:00,
2013-02-20 12:06:00,50.4,37.8,30.14,ESE,112,17.0,22.0,62,0.00,,,0.12,WUHU21623XXSP,2013-02-20 18:06:00,
2013-02-20 12:07:00,50.2,37.6,30.14,ESE,107,13.0,22.0,62,0.00,,,0.12,WUHU21623XXSP,2013-02-20 18:07:00,
2013-02-20 12:10:00,50.2,37.6,30.14,East,90,11.0,22.0,62,0.00,,,0.12,WUHU21623XXSP,2013-02-20 18:10:00,
2013-02-20 12:12:00,50.2,37.6,30.14,East,90,11.0,19.0,62,0.00,,,0.12,WUHU21623XXSP,2013-02-20 18:12:00,
2013-02-20 12:15:00,50.4,37.4,30.13,ESE,112,22.0,22.0,61,0.00,,,0.12,WUHU21623XXSP,2013-02-20 18:15:00,
2013-02-20 12:17:00,50.4,37.4,30.13,ESE,105,16.0,22.0,61,0.00,,,0.12,WUHU21623XXSP,2013-02-20 18:17:00,
2013-02-20 12:21:00,50.2,37.2,30.13,East,89,13.0,22.0,61,0.00,,,0.12,WUHU21623XXSP,2013-02-20 18:21:00,
2013-02-20 12:22:00,50.2,37.2,30.13,ENE,73,14.0,22.0,61,0.00,,,0.12,WUHU21623XXSP,2013-02-20 18:22:00,
2013-02-20 12:26:00,50.2,37.2,30.14,ENE,67,13.0,21.0,61,0.00,,,0.12,WUHU21623XXSP,2013-02-20 18:26:00,
2013-02-20 12:27:00,50.2,37.2,30.14,ESE,112,11.0,21.0,61,0.00,,,0.12,WUHU21623XXSP,2013-02-20 18:27:00,
2013-02-20 12:31:00,50.2,37.2,30.14,ESE,102,10.0,20.0,61,0.00,,,0.12,WUHU21623XXSP,2013-02-20 18:31:00,
2013-02-20 12:32:00,50.2,37.2,30.14,East,90,9.0,20.0,61,0.00,,,0.12,WUHU21623XXSP,2013-02-20 18:32:00,
2013-02-20 12:36:00,50.2,37.2,30.13,East,96,9.0,20.0,61,0.00,,,0.12,WUHU21623XXSP,2013-02-20 18:36:00,
2013-02-20 12:37:00,50.2,37.2,30.13,ESE,109,8.0,20.0,61,0.00,,,0.12,WUHU21623XXSP,2013-02-20 18:37:00,
2013-02-20 12:38:00,50.2,37.2,30.13,SE,135,5.0,20.0,61,0.00,,,0.12,WUHU21623XXSP,2013-02-20 18:38:00,
2013-02-20 12:41:00,50.2,37.2,30.13,East,90,10.0,13.0,61,0.00,,,0.12,WUHU21623XXSP,2013-02-20 18:41:00,
2013-02-20 12:42:00,50.2,37.2,30.13,East,90,10.0,13.0,61,0.00,,,0.12,WUHU21623XXSP,2013-02-20 18:42:00,
2013-02-20 12:43:00,50.2,37.2,30.13,East,80,9.0,13.0,61,0.00,,,0.12,WUHU21623XXSP,2013-02-20 18:43:00,
2013-02-20 12:46:00,50.4,37.4,30.13,SE,135,11.0,19.0,61,0.00,,,0.12,WUHU21623XXSP,2013-02-20 18:46:00,
2013-02-20 12:47:00,50.4,37.6,30.13,ESE,106,11.0,19.0,61,0.00,,,0.12,WUHU21623XXSP,2013-02-20 18:47:00,
2013-02-20 12:48:00,50.4,37.4,30.13,ESE,112,11.0,19.0,61,0.00,,,0.12,WUHU21623XXSP,2013-02-20 18:48:00,
2013-02-20 12:52:00,50.4,37.4,30.13,East,90,13.0,19.0,61,0.00,,,0.12,WUHU21623XXSP,2013-02-20 18:52:00,
2013-02-20 12:53:00,50.4,37.4,30.13,East,90,22.0,22.0,61,0.00,,,0.12,WUHU21623XXSP,2013-02-20 18:53:00,
2013-02-20 12:57:00,50.2,37.2,30.12,East,99,12.0,24.0,61,0.00,,,0.12,WUHU21623XXSP,2013-02-20 18:57:00,
2013-02-20 12:58:00,50.2,37.2,30.12,SE,135,16.0,24.0,61,0.00,,,0.12,WUHU21623XXSP,2013-02-20 18:58:00,
2013-02-20 13:02:00,50.4,37.4,30.12,ESE,112,17.0,24.0,61,0.00,,,0.12,WUHU21623XXSP,2013-02-20 19:02:00,
2013-02-20 13:03:00,50.4,37.4,30.12,East,90,16.0,24.0,61,0.00,,,0.12,WUHU21623XXSP,2013-02-20 19:03:00,
2013-02-20 13:07:00,50.4,37.4,30.12,East,90,18.0,20.0,61,0.00,,,0.12,WUHU21623XXSP,2013-02-20 19:07:00,
2013-02-20 13:08:00,50.4,37.4,30.12,East,90,20.0,20.0,61,0.00,,,0.12,WUHU21623XXSP,2013-02-20 19:08:00,
2013-02-20 13:09:00,50.4,37.4,30.12,ESE,107,13.0,20.0,61,0.00,,,0.12,WUHU21623XXSP,2013-02-20 19:09:00,
2013-02-20 13:12:00,50.2,37.2,30.11,SSE,157,20.0,20.0,61,0.00,,,0.12,WUHU21623XXSP,2013-02-20 19:12:00,
2013-02-20 13:13:00,50.2,37.2,30.11,ESE,112,19.0,20.0,61,0.00,,,0.12,WUHU21623XXSP,2013-02-20 19:13:00,
2013-02-20 13:14:00,50.4,37.4,30.11,ESE,107,15.0,20.0,61,0.00,,,0.12,WUHU21623XXSP,2013-02-20 19:14:00,
2013-02-20 13:18:00,50.2,36.9,30.11,ESE,102,14.0,23.0,60,0.00,,,0.12,WUHU21623XXSP,2013-02-20 19:18:00,
2013-02-20 13:20:00,50.2,36.8,30.11,East,95,11.0,23.0,60,0.00,,,0.12,WUHU21623XXSP,2013-02-20 19:20:00,
2013-02-20 13:23:00,50.2,36.8,30.10,East,90,13.0,23.0,60,0.00,,,0.12,WUHU21623XXSP,2013-02-20 19:23:00,
2013-02-20 13:25:00,50.2,36.8,30.11,East,90,15.0,23.0,60,0.00,,,0.12,WUHU21623XXSP,2013-02-20 19:25:00,
2013-02-20 13:28:00,50.2,36.8,30.10,East,99,13.0,21.0,60,0.00,,,0.12,WUHU21623XXSP,2013-02-20 19:28:00,
2013-02-20 13:29:00,50.2,36.9,30.10,East,98,12.0,21.0,60,0.00,,,0.12,WUHU21623XXSP,2013-02-20 19:29:00,
2013-02-20 13:30:00,50.2,36.8,30.10,East,95,12.0,21.0,60,0.00,,,0.12,WUHU21623XXSP,2013-02-20 19:30:00,
2013-02-20 13:33:00,50.2,36.8,30.09,East,90,14.0,21.0,60,0.00,,,0.12,WUHU21623XXSP,2013-02-20 19:33:00,
2013-02-20 13:34:00,50.2,36.9,30.09,East,85,14.0,21.0,60,0.00,,,0.12,WUHU21623XXSP,2013-02-20 19:34:00,
2013-02-20 13:35:00,50.2,36.8,30.09,East,90,12.0,21.0,60,0.00,,,0.12,WUHU21623XXSP,2013-02-20 19:35:00,
2013-02-20 13:38:00,50.2,36.8,30.09,ESE,108,9.0,21.0,60,0.00,,,0.12,WUHU21623XXSP,2013-02-20 19:38:00,
2013-02-20 13:39:00,50.2,36.9,30.09,East,94,12.0,21.0,60,0.00,,,0.12,WUHU21623XXSP,2013-02-20 19:39:00,
2013-02-20 13:40:00,50.2,36.8,30.09,SE,135,11.0,21.0,60,0.00,,,0.12,WUHU21623XXSP,2013-02-20 19:40:00,
2013-02-20 13:43:00,50.2,36.9,30.09,East,93,12.0,23.0,60,0.00,,,0.12,WUHU21623XXSP,2013-02-20 19:43:00,
2013-02-20 13:44:00,50.2,36.9,30.09,East,95,11.0,23.0,60,0.00,,,0.12,WUHU21623XXSP,2013-02-20 19:44:00,
2013-02-20 13:45:00,50.2,36.8,30.09,ESE,112,13.0,23.0,60,0.00,,,0.12,WUHU21623XXSP,2013-02-20 19:45:00,
2013-02-20 13:48:00,50.2,36.8,30.08,ENE,67,15.0,23.0,60,0.00,,,0.12,WUHU21623XXSP,2013-02-20 19:48:00,
2013-02-20 13:49:00,50.2,36.8,30.08,East,92,9.0,23.0,60,0.00,,,0.12,WUHU21623XXSP,2013-02-20 19:49:00,
2013-02-20 13:50:00,50.2,36.8,30.08,East,90,13.0,23.0,60,0.00,,,0.12,WUHU21623XXSP,2013-02-20 19:50:00,
2013-02-20 13:53:00,50.2,36.8,30.08,East,90,13.0,20.0,60,0.00,,,0.12,WUHU21623XXSP,2013-02-20 19:53:00,
2013-02-20 13:55:00,50.2,36.4,30.08,ESE,118,13.0,20.0,59,0.00,,,0.12,WUHU21623XXSP,2013-02-20 19:55:00,
2013-02-20 13:58:00,50.4,36.6,30.08,East,95,11.0,20.0,59,0.00,,,0.12,WUHU21623XXSP,2013-02-20 19:58:00,
2013-02-20 14:00:00,50.4,36.6,30.08,East,90,18.0,20.0,59,0.00,,,0.12,WUHU21623XXSP,2013-02-20 20:00:00,
2013-02-20 14:01:00,50.4,36.6,30.08,ESE,102,13.0,20.0,59,0.00,,,0.12,WUHU21623XXSP,2013-02-20 20:01:00,
2013-02-20 14:03:00,50.5,36.7,30.09,SE,135,9.0,20.0,59,0.00,,,0.12,WUHU21623XXSP,2013-02-20 20:03:00,
2013-02-20 14:05:00,50.5,36.7,30.08,East,81,11.0,20.0,59,0.00,,,0.12,WUHU21623XXSP,2013-02-20 20:05:00,
2013-02-20 14:06:00,50.5,36.7,30.08,ESE,112,18.0,20.0,59,0.00,,,0.12,WUHU21623XXSP,2013-02-20 20:06:00,
2013-02-20 14:08:00,50.4,36.6,30.08,East,90,14.0,18.0,59,0.00,,,0.12,WUHU21623XXSP,2013-02-20 20:08:00,
2013-02-20 14:10:00,50.5,36.6,30.08,East,90,16.0,18.0,59,0.00,,,0.12,WUHU21623XXSP,2013-02-20 20:10:00,
2013-02-20 14:11:00,50.4,36.6,30.08,East,98,13.0,18.0,59,0.00,,,0.12,WUHU21623XXSP,2013-02-20 20:11:00,
2013-02-20 14:13:00,50.4,36.1,30.08,ENE,67,20.0,20.0,58,0.00,,,0.12,WUHU21623XXSP,2013-02-20 20:13:00,
2013-02-20 14:15:00,50.4,36.1,30.08,East,86,14.0,20.0,58,0.00,,,0.12,WUHU21623XXSP,2013-02-20 20:15:00,
2013-02-20 14:16:00,50.4,36.1,30.09,East,80,12.0,20.0,58,0.00,,,0.12,WUHU21623XXSP,2013-02-20 20:16:00,
2013-02-20 14:19:00,50.4,36.1,30.09,NNE,22,10.0,20.0,58,0.00,,,0.12,WUHU21623XXSP,2013-02-20 20:19:00,
2013-02-20 14:20:00,50.4,36.1,30.09,East,90,13.0,21.0,58,0.00,,,0.12,WUHU21623XXSP,2013-02-20 20:20:00,
2013-02-20 14:21:00,50.4,36.1,30.09,East,101,14.0,21.0,58,0.00,,,0.12,WUHU21623XXSP,2013-02-20 20:21:00,
2013-02-20 14:24:00,50.4,36.1,30.08,East,85,12.0,21.0,58,0.00,,,0.12,WUHU21623XXSP,2013-02-20 20:24:00,
2013-02-20 14:25:00,50.5,36.3,30.08,East,95,11.0,21.0,58,0.00,,,0.12,WUHU21623XXSP,2013-02-20 20:25:00,
2013-02-20 14:26:00,50.5,36.3,30.09,East,94,12.0,21.0,58,0.00,,,0.12,WUHU21623XXSP,2013-02-20 20:26:00,
2013-02-20 14:29:00,50.4,36.1,30.09,ESE,104,12.0,21.0,58,0.00,,,0.12,WUHU21623XXSP,2013-02-20 20:29:00,
2013-02-20 14:30:00,50.4,36.1,30.09,East,88,11.0,21.0,58,0.00,,,0.12,WUHU21623XXSP,2013-02-20 20:30:00,
2013-02-20 14:31:00,50.4,36.1,30.09,East,97,10.0,21.0,58,0.00,,,0.12,WUHU21623XXSP,2013-02-20 20:31:00,
2013-02-20 14:35:00,50.5,36.3,30.09,ESE,112,11.0,17.0,58,0.00,,,0.12,WUHU21623XXSP,2013-02-20 20:35:00,
2013-02-20 14:36:00,50.5,36.3,30.10,ESE,112,14.0,17.0,58,0.00,,,0.12,WUHU21623XXSP,2013-02-20 20:36:00,
2013-02-20 14:40:00,50.5,36.3,30.09,ESE,104,11.0,17.0,58,0.00,,,0.12,WUHU21623XXSP,2013-02-20 20:40:00,
2013-02-20 14:41:00,50.5,36.3,30.09,NE,45,11.0,17.0,58,0.00,,,0.12,WUHU21623XXSP,2013-02-20 20:41:00,
2013-02-20 14:45:00,50.5,36.3,30.09,East,90,11.0,17.0,58,0.00,,,0.12,WUHU21623XXSP,2013-02-20 20:45:00,
2013-02-20 14:46:00,50.5,35.8,30.09,East,86,10.0,17.0,57,0.00,,,0.12,WUHU21623XXSP,2013-02-20 20:46:00,
2013-02-20 14:50:00,50.5,35.8,30.09,East,90,15.0,23.0,58,0.00,,,0.12,WUHU21623XXSP,2013-02-20 20:50:00,
2013-02-20 14:51:00,50.5,35.8,30.09,East,88,14.0,23.0,57,0.00,,,0.12,WUHU21623XXSP,2013-02-20 20:51:00,
2013-02-20 14:55:00,50.7,36.1,30.09,East,89,11.0,23.0,57,0.00,,,0.12,WUHU21623XXSP,2013-02-20 20:55:00,
2013-02-20 14:56:00,50.7,36.0,30.09,East,90,10.0,23.0,57,0.00,,,0.12,WUHU21623XXSP,2013-02-20 20:56:00,
2013-02-20 14:57:00,50.7,36.0,30.09,ENE,67,12.0,23.0,57,0.00,,,0.12,WUHU21623XXSP,2013-02-20 20:57:00,
2013-02-20 15:00:00,50.7,36.0,30.08,East,90,18.0,18.0,57,0.00,,,0.12,WUHU21623XXSP,2013-02-20 21:00:00,
2013-02-20 15:01:00,50.7,36.1,30.07,East,90,13.0,18.0,57,0.00,,,0.12,WUHU21623XXSP,2013-02-20 21:01:00,
2013-02-20 15:02:00,50.7,36.1,30.07,East,90,13.0,18.0,57,0.00,,,0.12,WUHU21623XXSP,2013-02-20 21:02:00,
2013-02-20 15:05:00,50.9,36.1,30.07,ENE,67,11.0,18.0,57,0.00,,,0.12,WUHU21623XXSP,2013-02-20 21:05:00,
2013-02-20 15:06:00,50.7,36.0,30.07,East,80,11.0,18.0,57,0.00,,,0.12,WUHU21623XXSP,2013-02-20 21:06:00,
2013-02-20 15:07:00,50.7,36.0,30.07,East,90,12.0,18.0,57,0.00,,,0.12,WUHU21623XXSP,2013-02-20 21:07:00,
2013-02-20 15:10:00,50.7,36.0,30.07,East,86,14.0,20.0,57,0.00,,,0.12,WUHU21623XXSP,2013-02-20 21:10:00,
2013-02-20 15:12:00,50.7,36.0,30.07,ESE,102,13.0,20.0,57,0.00,,,0.12,WUHU21623XXSP,2013-02-20 21:12:00,
2013-02-20 15:15:00,50.7,36.0,30.07,East,98,11.0,20.0,57,0.00,,,0.12,WUHU21623XXSP,2013-02-20 21:15:00,
2013-02-20 15:17:00,50.9,36.1,30.07,NE,45,13.0,20.0,57,0.00,,,0.12,WUHU21623XXSP,2013-02-20 21:17:00,
2013-02-20 15:20:00,50.7,36.0,30.06,ESE,112,17.0,21.0,57,0.00,,,0.12,WUHU21623XXSP,2013-02-20 21:20:00,
2013-02-20 15:22:00,50.7,36.1,30.05,ESE,102,13.0,21.0,57,0.00,,,0.12,WUHU21623XXSP,2013-02-20 21:22:00,
2013-02-20 15:25:00,50.7,36.0,30.05,ESE,105,13.0,21.0,57,0.00,,,0.12,WUHU21623XXSP,2013-02-20 21:25:00,
2013-02-20 15:27:00,50.7,36.0,30.05,ESE,108,12.0,21.0,57,0.00,,,0.12,WUHU21623XXSP,2013-02-20 21:27:00,
2013-02-20 15:28:00,50.7,36.0,30.05,East,101,10.0,19.0,57,0.00,,,0.12,WUHU21623XXSP,2013-02-20 21:28:00,
2013-02-20 15:31:00,50.7,36.0,30.05,ESE,104,11.0,19.0,57,0.00,,,0.12,WUHU21623XXSP,2013-02-20 21:31:00,
2013-02-20 15:32:00,50.5,35.8,30.05,East,96,10.0,19.0,57,0.00,,,0.12,WUHU21623XXSP,2013-02-20 21:32:00,
2013-02-20 15:33:00,50.7,36.0,30.04,East,90,12.0,19.0,57,0.00,,,0.12,WUHU21623XXSP,2013-02-20 21:33:00,
2013-02-20 15:36:00,50.7,36.0,30.05,East,90,15.0,19.0,57,0.00,,,0.12,WUHU21623XXSP,2013-02-20 21:36:00,
2013-02-20 15:37:00,50.5,35.8,30.05,East,95,14.0,20.0,57,0.00,,,0.12,WUHU21623XXSP,2013-02-20 21:37:00,
2013-02-20 15:38:00,50.5,35.8,30.04,East,94,13.0,20.0,57,0.00,,,0.12,WUHU21623XXSP,2013-02-20 21:38:00,
2013-02-20 15:41:00,50.5,35.8,30.05,East,90,10.0,20.0,57,0.00,,,0.12,WUHU21623XXSP,2013-02-20 21:41:00,
2013-02-20 15:42:00,50.5,35.8,30.05,ESE,102,10.0,20.0,57,0.00,,,0.12,WUHU21623XXSP,2013-02-20 21:42:00,
2013-02-20 15:43:00,50.5,35.8,30.05,ENE,67,12.0,20.0,57,0.00,,,0.12,WUHU21623XXSP,2013-02-20 21:43:00,
2013-02-20 15:46:00,50.7,36.1,30.05,East,95,11.0,20.0,57,0.00,,,0.12,WUHU21623XXSP,2013-02-20 21:46:00,
2013-02-20 15:47:00,50.7,36.0,30.05,NE,45,11.0,16.0,57,0.00,,,0.12,WUHU21623XXSP,2013-02-20 21:47:00,
2013-02-20 15:48:00,50.7,36.0,30.05,East,90,11.0,16.0,57,0.00,,,0.12,WUHU21623XXSP,2013-02-20 21:48:00,
2013-02-20 15:51:00,50.7,36.0,30.05,East,95,11.0,19.0,57,0.00,,,0.12,WUHU21623XXSP,2013-02-20 21:51:00,
2013-02-20 15:53:00,50.7,36.0,30.04,East,87,10.0,19.0,57,0.00,,,0.12,WUHU21623XXSP,2013-02-20 21:53:00,
2013-02-20 15:56:00,50.7,36.0,30.04,East,79,12.0,19.0,57,0.00,,,0.12,WUHU21623XXSP,2013-02-20 21:56:00,
2013-02-20 15:58:00,50.7,36.0,30.04,SE,135,15.0,19.0,57,0.00,,,0.12,WUHU21623XXSP,2013-02-20 21:58:00,
2013-02-20 16:01:00,50.7,36.0,30.03,East,92,12.0,20.0,57,0.00,,,0.12,WUHU21623XXSP,2013-02-20 22:01:00,
2013-02-20 16:03:00,50.7,36.1,30.04,East,86,13.0,23.0,57,0.00,,,0.12,WUHU21623XXSP,2013-02-20 22:03:00,
2013-02-20 16:07:00,50.7,36.0,30.04,ENE,67,11.0,23.0,57,0.00,,,0.12,WUHU21623XXSP,2013-02-20 22:07:00,
2013-02-20 16:08:00,50.7,36.0,30.04,ENE,67,13.0,23.0,57,0.00,,,0.12,WUHU21623XXSP,2013-02-20 22:08:00,
2013-02-20 16:09:00,50.7,36.0,30.04,ENE,74,10.0,23.0,57,0.00,,,0.12,WUHU21623XXSP,2013-02-20 22:09:00,
2013-02-20 16:12:00,50.7,35.5,30.04,East,100,12.0,23.0,56,0.00,,,0.12,WUHU21623XXSP,2013-02-20 22:12:00,
2013-02-20 16:13:00,50.7,35.5,30.04,East,90,9.0,17.0,56,0.00,,,0.12,WUHU21623XXSP,2013-02-20 22:13:00,
2013-02-20 16:14:00,50.7,35.5,30.04,East,90,13.0,17.0,56,0.00,,,0.12,WUHU21623XXSP,2013-02-20 22:14:00,
2013-02-20 16:17:00,50.7,35.5,30.04,ENE,67,9.0,17.0,56,0.00,,,0.12,WUHU21623XXSP,2013-02-20 22:17:00,
2013-02-20 16:18:00,50.7,35.5,30.04,ENE,75,11.0,20.0,56,0.00,,,0.12,WUHU21623XXSP,2013-02-20 22:18:00,
2013-02-20 16:19:00,50.7,36.0,30.04,East,81,12.0,20.0,57,0.00,,,0.12,WUHU21623XXSP,2013-02-20 22:19:00,
2013-02-20 16:22:00,50.7,35.5,30.04,ENE,67,19.0,20.0,56,0.00,,,0.12,WUHU21623XXSP,2013-02-20 22:22:00,
2013-02-20 16:23:00,50.7,35.5,30.04,East,93,13.0,20.0,56,0.00,,,0.12,WUHU21623XXSP,2013-02-20 22:23:00,
2013-02-20 16:24:00,50.7,35.5,30.04,East,95,13.0,20.0,56,0.00,,,0.12,WUHU21623XXSP,2013-02-20 22:24:00,
2013-02-20 16:28:00,50.5,35.4,30.04,ESE,112,13.0,20.0,56,0.00,,,0.12,WUHU21623XXSP,2013-02-20 22:28:00,
2013-02-20 16:29:00,50.5,35.4,30.04,ESE,112,14.0,19.0,56,0.00,,,0.12,WUHU21623XXSP,2013-02-20 22:29:00,
2013-02-20 16:33:00,50.5,35.4,30.04,East,89,13.0,20.0,56,0.00,,,0.12,WUHU21623XXSP,2013-02-20 22:33:00,
2013-02-20 16:34:00,50.7,35.5,30.04,East,90,12.0,20.0,56,0.00,,,0.12,WUHU21623XXSP,2013-02-20 22:34:00,
2013-02-20 16:38:00,50.5,35.4,30.04,ESE,105,11.0,20.0,56,0.00,,,0.12,WUHU21623XXSP,2013-02-20 22:38:00,
2013-02-20 16:39:00,50.7,36.0,30.04,East,90,13.0,18.0,57,0.00,,,0.12,WUHU21623XXSP,2013-02-20 22:39:00,
2013-02-20 16:43:00,50.7,35.5,30.04,East,90,20.0,20.0,56,0.00,,,0.12,WUHU21623XXSP,2013-02-20 22:43:00,
2013-02-20 16:44:00,50.7,35.5,30.04,East,85,11.0,20.0,56,0.00,,,0.12,WUHU21623XXSP,2013-02-20 22:44:00,
2013-02-20 16:48:00,50.5,35.4,30.04,ESE,104,12.0,20.0,56,0.00,,,0.12,WUHU21623XXSP,2013-02-20 22:48:00,
2013-02-20 16:49:00,50.7,35.5,30.03,East,90,11.0,20.0,56,0.00,,,0.12,WUHU21623XXSP,2013-02-20 22:49:00,
2013-02-20 16:50:00,50.7,35.5,30.03,East,87,11.0,20.0,56,0.00,,,0.12,WUHU21623XXSP,2013-02-20 22:50:00,
2013-02-20 16:53:00,50.5,35.8,30.02,ENE,67,11.0,18.0,57,0.00,,,0.12,WUHU21623XXSP,2013-02-20 22:53:00,
2013-02-20 16:54:00,50.5,35.8,30.02,ENE,67,13.0,18.0,57,0.00,,,0.12,WUHU21623XXSP,2013-02-20 22:54:00,
2013-02-20 16:55:00,50.5,35.8,30.02,ENE,70,11.0,18.0,57,0.00,,,0.12,WUHU21623XXSP,2013-02-20 22:55:00,
2013-02-20 16:59:00,50.5,35.8,30.02,East,94,11.0,19.0,57,0.00,,,0.12,WUHU21623XXSP,2013-02-20 22:59:00,
2013-02-20 17:00:00,50.5,35.9,30.02,East,87,13.0,19.0,57,0.00,,,0.12,WUHU21623XXSP,2013-02-20 23:00:00,
2013-02-20 17:04:00,50.5,35.8,30.02,ENE,67,13.0,19.0,57,0.00,,,0.12,WUHU21623XXSP,2013-02-20 23:04:00,
2013-02-20 17:05:00,50.5,35.8,30.02,ENE,67,18.0,19.0,57,0.00,,,0.12,WUHU21623XXSP,2013-02-20 23:05:00,
2013-02-20 17:10:00,50.5,36.3,30.01,East,86,9.0,18.0,58,0.00,,,0.12,WUHU21623XXSP,2013-02-20 23:10:00,
2013-02-20 17:11:00,50.5,36.3,30.01,East,81,9.0,18.0,58,0.00,,,0.12,WUHU21623XXSP,2013-02-20 23:11:00,
2013-02-20 17:15:00,50.5,36.3,30.01,East,85,7.0,15.0,58,0.00,,,0.12,WUHU21623XXSP,2013-02-20 23:15:00,
2013-02-20 17:16:00,50.4,36.3,30.01,East,84,10.0,15.0,58,0.00,,,0.12,WUHU21623XXSP,2013-02-20 23:16:00,
2013-02-20 17:20:00,50.4,36.3,30.00,East,83,13.0,22.0,58,0.00,,,0.12,WUHU21623XXSP,2013-02-20 23:20:00,
2013-02-20 17:21:00,50.4,36.1,30.00,East,90,13.0,22.0,58,0.00,,,0.12,WUHU21623XXSP,2013-02-20 23:21:00,
2013-02-20 17:25:00,50.4,36.3,30.00,East,82,12.0,22.0,58,0.00,,,0.12,WUHU21623XXSP,2013-02-20 23:25:00,
2013-02-20 17:26:00,50.2,35.9,30.00,East,89,11.0,22.0,58,0.00,,,0.12,WUHU21623XXSP,2013-02-20 23:26:00,
2013-02-20 17:30:00,50.2,35.9,30.00,ENE,67,11.0,18.0,58,0.00,,,0.12,WUHU21623XXSP,2013-02-20 23:30:00,
2013-02-20 17:31:00,50.2,35.9,30.00,ENE,68,11.0,18.0,58,0.00,,,0.12,WUHU21623XXSP,2013-02-20 23:31:00,
2013-02-20 17:35:00,50.2,36.4,30.00,ENE,67,12.0,15.0,59,0.00,,,0.12,WUHU21623XXSP,2013-02-20 23:35:00,
2013-02-20 17:36:00,50.2,36.4,30.00,ESE,112,12.0,15.0,59,0.00,,,0.12,WUHU21623XXSP,2013-02-20 23:36:00,
2013-02-20 17:40:00,50.2,36.4,30.00,NE,45,10.0,12.0,59,0.00,,,0.12,WUHU21623XXSP,2013-02-20 23:40:00,
2013-02-20 17:41:00,50.2,36.4,30.00,ESE,112,10.0,12.0,59,0.00,,,0.12,WUHU21623XXSP,2013-02-20 23:41:00,
2013-02-20 17:42:00,50.0,36.2,30.00,ENE,76,10.0,13.0,59,0.00,,,0.12,WUHU21623XXSP,2013-02-20 23:42:00,
2013-02-20 17:45:00,50.0,36.2,30.00,East,81,9.0,17.0,59,0.00,,,0.12,WUHU21623XXSP,2013-02-20 23:45:00,
2013-02-20 17:46:00,50.0,36.2,30.00,East,90,8.0,17.0,59,0.00,,,0.12,WUHU21623XXSP,2013-02-20 23:46:00,
2013-02-20 17:47:00,49.8,36.0,30.00,ESE,112,12.0,17.0,59,0.00,,,0.12,WUHU21623XXSP,2013-02-20 23:47:00,
2013-02-20 17:50:00,49.8,36.1,30.00,ENE,69,11.0,17.0,59,0.00,,,0.12,WUHU21623XXSP,2013-02-20 23:50:00,
2013-02-20 17:51:00,49.8,36.0,30.00,ENE,71,12.0,17.0,59,0.00,,,0.12,WUHU21623XXSP,2013-02-20 23:51:00,
2013-02-20 17:53:00,49.8,36.0,30.00,East,90,12.0,17.0,59,0.00,,,0.12,WUHU21623XXSP,2013-02-20 23:53:00,
2013-02-20 17:56:00,49.8,36.0,30.00,East,86,10.0,17.0,59,0.00,,,0.12,WUHU21623XXSP,2013-02-20 23:56:00,
2013-02-20 17:57:00,49.8,36.0,30.00,East,99,9.0,17.0,59,0.00,,,0.12,WUHU21623XXSP,2013-02-20 23:57:00,
2013-02-20 17:58:00,49.8,36.0,30.01,East,94,10.0,17.0,59,0.00,,,0.12,WUHU21623XXSP,2013-02-20 23:58:00,
2013-02-20 18:01:00,49.8,36.0,30.01,East,83,9.0,15.0,59,0.00,,,0.12,WUHU21623XXSP,2013-02-21 00:01:00,
2013-02-20 18:02:00,49.8,36.0,30.01,East,94,8.0,15.0,59,0.00,,,0.12,WUHU21623XXSP,2013-02-21 00:02:00,
2013-02-20 18:03:00,49.8,36.0,30.01,NE,45,7.0,15.0,59,0.00,,,0.12,WUHU21623XXSP,2013-02-21 00:03:00,
2013-02-20 18:06:00,49.8,36.0,30.01,East,90,11.0,15.0,59,0.00,,,0.12,WUHU21623XXSP,2013-02-21 00:06:00,
2013-02-20 18:07:00,49.8,36.0,30.01,ENE,66,10.0,15.0,59,0.00,,,0.12,WUHU21623XXSP,2013-02-21 00:07:00,
2013-02-20 18:08:00,49.8,36.0,30.02,East,90,10.0,12.0,59,0.00,,,0.12,WUHU21623XXSP,2013-02-21 00:08:00,
2013-02-20 18:11:00,49.6,35.9,30.01,ENE,76,8.0,12.0,59,0.00,,,0.12,WUHU21623XXSP,2013-02-21 00:11:00,
2013-02-20 18:12:00,49.6,35.9,30.01,NE,45,10.0,12.0,59,0.00,,,0.12,WUHU21623XXSP,2013-02-21 00:12:00,
2013-02-20 18:13:00,49.6,35.9,30.01,East,90,9.0,12.0,59,0.00,,,0.12,WUHU21623XXSP,2013-02-21 00:13:00,
2013-02-20 18:16:00,49.6,35.9,30.02,East,87,10.0,13.0,59,0.00,,,0.12,WUHU21623XXSP,2013-02-21 00:16:00,
2013-02-20 18:17:00,49.6,35.9,30.02,ENE,67,9.0,13.0,59,0.00,,,0.12,WUHU21623XXSP,2013-02-21 00:17:00,
2013-02-20 18:18:00,49.6,35.9,30.02,ENE,65,9.0,13.0,59,0.00,,,0.12,WUHU21623XXSP,2013-02-21 00:18:00,
2013-02-20 18:21:00,49.6,35.9,30.02,ENE,66,10.0,13.0,59,0.00,,,0.12,WUHU21623XXSP,2013-02-21 00:21:00,
2013-02-20 18:22:00,49.6,35.9,30.02,ENE,67,9.0,13.0,59,0.00,,,0.12,WUHU21623XXSP,2013-02-21 00:22:00,
2013-02-20 18:23:00,49.6,35.9,30.02,ENE,65,4.0,13.0,59,0.00,,,0.12,WUHU21623XXSP,2013-02-21 00:23:00,
2013-02-20 18:27:00,49.5,36.2,30.02,ENE,69,10.0,13.0,60,0.00,,,0.12,WUHU21623XXSP,2013-02-21 00:27:00,
2013-02-20 18:29:00,49.3,36.0,30.02,ENE,67,9.0,13.0,60,0.00,,,0.12,WUHU21623XXSP,2013-02-21 00:29:00,
2013-02-20 18:32:00,49.3,36.0,30.02,East,90,13.0,13.0,60,0.00,,,0.12,WUHU21623XXSP,2013-02-21 00:32:00,
2013-02-20 18:34:00,49.3,36.0,30.02,East,82,9.0,13.0,60,0.00,,,0.12,WUHU21623XXSP,2013-02-21 00:34:00,
2013-02-20 18:37:00,49.5,36.2,30.02,East,80,10.0,13.0,60,0.00,,,0.12,WUHU21623XXSP,2013-02-21 00:37:00,
2013-02-20 18:38:00,49.6,36.4,30.02,East,90,15.0,15.0,60,0.00,,,0.12,WUHU21623XXSP,2013-02-21 00:38:00,
2013-02-20 18:39:00,49.6,36.4,30.02,East,81,10.0,15.0,60,0.00,,,0.12,WUHU21623XXSP,2013-02-21 00:39:00,
2013-02-20 18:42:00,49.6,36.4,30.02,ESE,112,11.0,15.0,60,0.00,,,0.12,WUHU21623XXSP,2013-02-21 00:42:00,
2013-02-20 18:43:00,49.6,36.4,30.02,ENE,76,11.0,15.0,60,0.00,,,0.12,WUHU21623XXSP,2013-02-21 00:43:00,
2013-02-20 18:44:00,49.5,36.2,30.01,ENE,78,13.0,20.0,60,0.00,,,0.12,WUHU21623XXSP,2013-02-21 00:44:00,
2013-02-20 18:47:00,49.3,36.0,30.01,East,90,9.0,21.0,60,0.00,,,0.12,WUHU21623XXSP,2013-02-21 00:47:00,
2013-02-20 18:48:00,49.3,36.0,30.01,East,90,12.0,21.0,60,0.00,,,0.12,WUHU21623XXSP,2013-02-21 00:48:00,
2013-02-20 18:49:00,49.3,36.0,30.01,ENE,67,11.0,21.0,60,0.00,,,0.12,WUHU21623XXSP,2013-02-21 00:49:00,
2013-02-20 18:53:00,49.3,36.0,30.01,ENE,72,9.0,21.0,60,0.00,,,0.12,WUHU21623XXSP,2013-02-21 00:53:00,
2013-02-20 18:54:00,49.3,36.0,30.01,ENE,68,10.0,21.0,60,0.00,,,0.12,WUHU21623XXSP,2013-02-21 00:54:00,
2013-02-20 18:58:00,49.1,35.4,30.02,East,90,10.0,15.0,59,0.00,,,0.12,WUHU21623XXSP,2013-02-21 00:58:00,
2013-02-20 18:59:00,49.1,35.4,30.01,NE,45,12.0,15.0,59,0.00,,,0.12,WUHU21623XXSP,2013-02-21 00:59:00,
2013-02-20 19:03:00,49.1,35.4,30.02,East,90,14.0,16.0,59,0.00,,,0.12,WUHU21623XXSP,2013-02-21 01:03:00,
2013-02-20 19:04:00,48.9,35.2,30.01,East,90,11.0,16.0,59,0.00,,,0.12,WUHU21623XXSP,2013-02-21 01:04:00,
2013-02-20 19:08:00,48.9,35.2,30.01,ENE,67,11.0,16.0,59,0.00,,,0.12,WUHU21623XXSP,2013-02-21 01:08:00,
2013-02-20 19:09:00,48.7,35.1,30.02,East,83,7.0,16.0,59,0.00,,,0.12,WUHU21623XXSP,2013-02-21 01:09:00,
2013-02-20 19:13:00,48.9,35.2,30.02,East,90,8.0,12.0,59,0.00,,,0.12,WUHU21623XXSP,2013-02-21 01:13:00,
2013-02-20 19:14:00,48.9,35.2,30.02,East,90,9.0,12.0,59,0.00,,,0.12,WUHU21623XXSP,2013-02-21 01:14:00,
2013-02-20 19:18:00,48.9,35.7,30.01,East,86,6.0,14.0,60,0.00,,,0.12,WUHU21623XXSP,2013-02-21 01:18:00,
2013-02-20 19:19:00,48.9,35.7,30.01,ENE,78,7.0,14.0,60,0.00,,,0.12,WUHU21623XXSP,2013-02-21 01:19:00,
2013-02-20 19:23:00,48.7,35.5,30.01,East,90,11.0,14.0,60,0.00,,,0.12,WUHU21623XXSP,2013-02-21 01:23:00,
2013-02-20 19:24:00,48.7,35.1,30.01,ENE,67,10.0,14.0,59,0.00,,,0.12,WUHU21623XXSP,2013-02-21 01:24:00,
2013-02-20 19:25:00,48.7,35.1,30.01,ENE,67,12.0,15.0,59,0.00,,,0.12,WUHU21623XXSP,2013-02-21 01:25:00,
2013-02-20 19:28:00,48.7,35.5,30.01,ENE,67,9.0,15.0,60,0.00,,,0.12,WUHU21623XXSP,2013-02-21 01:28:00,
2013-02-20 19:29:00,48.7,35.5,30.01,East,90,8.0,15.0,60,0.00,,,0.12,WUHU21623XXSP,2013-02-21 01:29:00,
2013-02-20 19:30:00,48.7,35.5,30.01,East,82,9.0,15.0,60,0.00,,,0.12,WUHU21623XXSP,2013-02-21 01:30:00,
2013-02-20 19:33:00,48.7,35.5,30.00,East,90,12.0,15.0,60,0.00,,,0.12,WUHU21623XXSP,2013-02-21 01:33:00,
2013-02-20 19:34:00,48.7,35.5,30.00,NE,45,9.0,15.0,60,0.00,,,0.12,WUHU21623XXSP,2013-02-21 01:34:00,
2013-02-20 19:35:00,48.7,35.5,30.00,ENE,67,12.0,13.0,60,0.00,,,0.12,WUHU21623XXSP,2013-02-21 01:35:00,
2013-02-20 19:38:00,48.7,35.5,30.01,East,87,10.0,15.0,60,0.00,,,0.12,WUHU21623XXSP,2013-02-21 01:38:00,
2013-02-20 19:39:00,48.7,35.5,30.01,East,86,9.0,15.0,60,0.00,,,0.12,WUHU21623XXSP,2013-02-21 01:39:00,
2013-02-20 19:40:00,48.7,35.5,30.01,ESE,112,9.0,15.0,60,0.00,,,0.12,WUHU21623XXSP,2013-02-21 01:40:00,
2013-02-20 19:41:00,48.7,35.5,30.00,ESE,107,7.0,15.0,60,0.00,,,0.12,WUHU21623XXSP,2013-02-21 01:41:00,
2013-02-20 19:44:00,48.6,35.4,30.01,ENE,61,9.0,15.0,60,0.00,,,0.12,WUHU21623XXSP,2013-02-21 01:44:00,
2013-02-20 19:45:00,48.6,35.4,30.01,East,90,12.0,15.0,60,0.00,,,0.12,WUHU21623XXSP,2013-02-21 01:45:00,
2013-02-20 19:46:00,48.6,35.4,30.01,ESE,112,10.0,13.0,60,0.00,,,0.12,WUHU21623XXSP,2013-02-21 01:46:00,
2013-02-20 19:49:00,48.4,35.2,30.01,ESE,112,9.0,18.0,60,0.00,,,0.12,WUHU21623XXSP,2013-02-21 01:49:00,
2013-02-20 19:50:00,48.4,35.2,30.01,ENE,67,16.0,18.0,60,0.00,,,0.12,WUHU21623XXSP,2013-02-21 01:50:00,
2013-02-20 19:51:00,48.4,35.2,30.01,East,90,12.0,18.0,60,0.00,,,0.12,WUHU21623XXSP,2013-02-21 01:51:00,
2013-02-20 19:54:00,48.4,35.2,30.00,East,88,11.0,18.0,60,0.00,,,0.12,WUHU21623XXSP,2013-02-21 01:54:00,
2013-02-20 19:55:00,48.2,35.1,30.00,East,81,11.0,18.0,60,0.00,,,0.12,WUHU21623XXSP,2013-02-21 01:55:00,
2013-02-20 19:56:00,48.2,35.1,30.00,East,83,13.0,17.0,60,0.00,,,0.12,WUHU21623XXSP,2013-02-21 01:56:00,
2013-02-20 19:59:00,48.2,35.1,30.00,East,96,11.0,17.0,60,0.00,,,0.12,WUHU21623XXSP,2013-02-21 01:59:00,
2013-02-20 20:00:00,48.2,35.1,30.00,East,90,10.0,17.0,60,0.00,,,0.12,WUHU21623XXSP,2013-02-21 02:00:00,
2013-02-20 20:01:00,48.2,35.1,29.99,East,90,17.0,17.0,60,0.00,,,0.12,WUHU21623XXSP,2013-02-21 02:01:00,
2013-02-20 20:04:00,48.2,35.1,29.99,East,79,10.0,18.0,60,0.00,,,0.12,WUHU21623XXSP,2013-02-21 02:04:00,
2013-02-20 20:05:00,48.2,35.1,29.99,East,89,11.0,18.0,60,0.00,,,0.12,WUHU21623XXSP,2013-02-21 02:05:00,
2013-02-20 20:06:00,48.2,35.1,29.99,NE,45,10.0,18.0,60,0.00,,,0.12,WUHU21623XXSP,2013-02-21 02:06:00,
2013-02-20 20:09:00,48.2,35.1,30.00,East,90,10.0,18.0,60,0.00,,,0.12,WUHU21623XXSP,2013-02-21 02:09:00,
2013-02-20 20:10:00,48.2,35.1,30.00,ESE,112,11.0,18.0,60,0.00,,,0.12,WUHU21623XXSP,2013-02-21 02:10:00,
2013-02-20 20:11:00,48.2,35.1,30.00,East,90,13.0,18.0,60,0.00,,,0.12,WUHU21623XXSP,2013-02-21 02:11:00,
2013-02-20 20:14:00,48.4,35.2,30.00,NE,45,11.0,16.0,60,0.00,,,0.12,WUHU21623XXSP,2013-02-21 02:14:00,
2013-02-20 20:15:00,48.4,35.2,30.00,East,81,10.0,16.0,60,0.00,,,0.12,WUHU21623XXSP,2013-02-21 02:15:00,
2013-02-20 20:16:00,48.4,35.2,30.00,East,90,13.0,16.0,60,0.00,,,0.12,WUHU21623XXSP,2013-02-21 02:16:00,
2013-02-20 20:20:00,48.2,35.1,30.01,ENE,77,11.0,16.0,60,0.00,,,0.12,WUHU21623XXSP,2013-02-21 02:20:00,
2013-02-20 20:21:00,48.4,35.2,30.01,East,90,10.0,16.0,60,0.00,,,0.12,WUHU21623XXSP,2013-02-21 02:21:00,
2013-02-20 20:22:00,48.2,35.0,30.01,East,81,11.0,16.0,60,0.00,,,0.12,WUHU21623XXSP,2013-02-21 02:22:00,
2013-02-20 20:25:00,48.2,35.1,30.00,ENE,62,8.0,16.0,60,0.00,,,0.12,WUHU21623XXSP,2013-02-21 02:25:00,
2013-02-20 20:26:00,48.2,35.1,30.00,East,90,9.0,16.0,60,0.00,,,0.12,WUHU21623XXSP,2013-02-21 02:26:00,
2013-02-20 20:27:00,48.2,35.1,30.00,ESE,112,15.0,16.0,60,0.00,,,0.12,WUHU21623XXSP,2013-02-21 02:27:00,
2013-02-20 20:30:00,48.4,35.2,29.99,East,88,12.0,18.0,60,0.00,,,0.12,WUHU21623XXSP,2013-02-21 02:30:00,
2013-02-20 20:31:00,48.4,35.2,29.99,East,80,11.0,18.0,60,0.00,,,0.12,WUHU21623XXSP,2013-02-21 02:31:00,
2013-02-20 20:32:00,48.4,35.2,29.99,ENE,67,19.0,21.0,60,0.00,,,0.12,WUHU21623XXSP,2013-02-21 02:32:00,
2013-02-20 20:35:00,48.4,35.2,29.99,ENE,69,10.0,21.0,60,0.00,,,0.12,WUHU21623XXSP,2013-02-21 02:35:00,
2013-02-20 20:36:00,48.4,35.2,29.99,East,81,9.0,21.0,60,0.00,,,0.12,WUHU21623XXSP,2013-02-21 02:36:00,
2013-02-20 20:37:00,48.4,35.2,29.99,ENE,67,13.0,21.0,60,0.00,,,0.12,WUHU21623XXSP,2013-02-21 02:37:00,
2013-02-20 20:40:00,48.4,35.2,29.99,East,90,12.0,21.0,60,0.00,,,0.12,WUHU21623XXSP,2013-02-21 02:40:00,
2013-02-20 20:41:00,48.4,35.2,29.99,East,90,10.0,21.0,60,0.00,,,0.12,WUHU21623XXSP,2013-02-21 02:41:00,
2013-02-20 20:42:00,48.4,35.2,29.99,East,94,10.0,21.0,60,0.00,,,0.12,WUHU21623XXSP,2013-02-21 02:42:00,
2013-02-20 20:45:00,48.4,35.2,29.98,ENE,75,12.0,18.0,60,0.00,,,0.12,WUHU21623XXSP,2013-02-21 02:45:00,
2013-02-20 20:46:00,48.4,35.2,29.98,East,85,10.0,18.0,60,0.00,,,0.12,WUHU21623XXSP,2013-02-21 02:46:00,
2013-02-20 20:47:00,48.4,35.2,29.98,East,98,9.0,18.0,60,0.00,,,0.12,WUHU21623XXSP,2013-02-21 02:47:00,
2013-02-20 20:50:00,48.4,35.2,29.98,East,85,9.0,21.0,60,0.00,,,0.12,WUHU21623XXSP,2013-02-21 02:50:00,
2013-02-20 20:51:00,48.4,35.2,29.98,East,85,9.0,21.0,60,0.00,,,0.12,WUHU21623XXSP,2013-02-21 02:51:00,
2013-02-20 20:52:00,48.4,35.2,29.98,ENE,71,8.0,21.0,60,0.00,,,0.12,WUHU21623XXSP,2013-02-21 02:52:00,
2013-02-20 20:55:00,48.4,35.2,29.98,East,90,10.0,21.0,60,0.00,,,0.12,WUHU21623XXSP,2013-02-21 02:55:00,
2013-02-20 20:56:00,48.2,35.1,29.98,East,90,15.0,21.0,60,0.00,,,0.12,WUHU21623XXSP,2013-02-21 02:56:00,
2013-02-20 20:57:00,48.2,35.1,29.97,East,90,12.0,21.0,60,0.00,,,0.12,WUHU21623XXSP,2013-02-21 02:57:00,
2013-02-20 21:01:00,48.2,35.1,29.97,ENE,70,9.0,16.0,60,0.00,,,0.12,WUHU21623XXSP,2013-02-21 03:01:00,
2013-02-20 21:02:00,48.2,35.0,29.97,East,80,11.0,17.0,60,0.00,,,0.12,WUHU21623XXSP,2013-02-21 03:02:00,
2013-02-20 21:06:00,48.0,34.9,29.98,East,79,11.0,17.0,60,0.00,,,0.12,WUHU21623XXSP,2013-02-21 03:06:00,
2013-02-20 21:08:00,48.0,34.9,29.98,East,80,10.0,17.0,60,0.00,,,0.12,WUHU21623XXSP,2013-02-21 03:08:00,
2013-02-20 21:11:00,48.0,34.9,29.97,East,84,17.0,21.0,60,0.00,,,0.12,WUHU21623XXSP,2013-02-21 03:11:00,
2013-02-20 21:13:00,48.0,34.9,29.97,ENE,67,14.0,21.0,60,0.00,,,0.12,WUHU21623XXSP,2013-02-21 03:13:00,
2013-02-20 21:16:00,48.0,34.9,29.97,East,85,10.0,21.0,60,0.00,,,0.12,WUHU21623XXSP,2013-02-21 03:16:00,
2013-02-20 21:18:00,48.2,35.1,29.97,East,92,14.0,22.0,60,0.00,,,0.12,WUHU21623XXSP,2013-02-21 03:18:00,
2013-02-20 21:21:00,48.2,35.1,29.97,ENE,67,21.0,22.0,60,0.00,,,0.12,WUHU21623XXSP,2013-02-21 03:21:00,
2013-02-20 21:22:00,48.2,35.1,29.97,East,95,13.0,22.0,60,0.00,,,0.12,WUHU21623XXSP,2013-02-21 03:22:00,
2013-02-20 21:24:00,48.2,35.1,29.96,East,99,12.0,22.0,60,0.00,,,0.12,WUHU21623XXSP,2013-02-21 03:24:00,
2013-02-20 21:26:00,48.2,34.6,29.96,ENE,67,20.0,22.0,59,0.00,,,0.12,WUHU21623XXSP,2013-02-21 03:26:00,
2013-02-20 21:27:00,48.2,34.6,29.96,East,91,12.0,22.0,59,0.00,,,0.12,WUHU21623XXSP,2013-02-21 03:27:00,
2013-02-20 21:29:00,48.0,34.4,29.96,East,90,15.0,21.0,59,0.00,,,0.12,WUHU21623XXSP,2013-02-21 03:29:00,
2013-02-20 21:31:00,48.0,34.4,29.96,ESE,112,13.0,20.0,59,0.00,,,0.12,WUHU21623XXSP,2013-02-21 03:31:00,
2013-02-20 21:32:00,48.0,34.9,29.96,East,90,16.0,20.0,60,0.00,,,0.12,WUHU21623XXSP,2013-02-21 03:32:00,
2013-02-20 21:34:00,48.2,34.6,29.97,East,97,12.0,20.0,59,0.00,,,0.12,WUHU21623XXSP,2013-02-21 03:34:00,
2013-02-20 21:36:00,48.2,34.6,29.96,East,93,12.0,20.0,59,0.00,,,0.12,WUHU21623XXSP,2013-02-21 03:36:00,
2013-02-20 21:37:00,48.2,34.6,29.96,East,97,9.0,20.0,59,0.00,,,0.12,WUHU21623XXSP,2013-02-21 03:37:00,
2013-02-20 21:39:00,48.2,34.6,29.96,East,93,13.0,20.0,59,0.00,,,0.12,WUHU21623XXSP,2013-02-21 03:39:00,
2013-02-20 21:42:00,48.2,34.6,29.96,East,87,12.0,19.0,59,0.00,,,0.12,WUHU21623XXSP,2013-02-21 03:42:00,
2013-02-20 21:44:00,48.2,34.6,29.96,ENE,67,13.0,19.0,59,0.00,,,0.12,WUHU21623XXSP,2013-02-21 03:44:00,
2013-02-20 21:47:00,48.2,34.6,29.96,East,93,10.0,19.0,59,0.00,,,0.12,WUHU21623XXSP,2013-02-21 03:47:00,
2013-02-20 21:50:00,48.2,34.6,29.96,ESE,112,12.0,19.0,59,0.00,,,0.12,WUHU21623XXSP,2013-02-21 03:50:00,
2013-02-20 21:52:00,48.2,34.6,29.95,ESE,112,11.0,19.0,59,0.00,,,0.12,WUHU21623XXSP,2013-02-21 03:52:00,
2013-02-20 21:53:00,48.2,34.6,29.95,East,90,13.0,19.0,59,0.00,,,0.12,WUHU21623XXSP,2013-02-21 03:53:00,
2013-02-20 21:55:00,48.4,34.8,29.95,East,100,13.0,19.0,59,0.00,,,0.12,WUHU21623XXSP,2013-02-21 03:55:00,
2013-02-20 21:58:00,48.4,34.8,29.95,East,86,8.0,19.0,59,0.00,,,0.12,WUHU21623XXSP,2013-02-21 03:58:00,
2013-02-20 22:00:00,48.2,34.6,29.94,East,84,15.0,22.0,59,0.00,,,0.12,WUHU21623XXSP,2013-02-21 04:00:00,
2013-02-20 22:03:00,48.2,34.6,29.94,East,80,13.0,22.0,59,0.00,,,0.12,WUHU21623XXSP,2013-02-21 04:03:00,
2013-02-20 22:04:00,48.2,34.6,29.94,East,90,16.0,22.0,59,0.00,,,0.12,WUHU21623XXSP,2013-02-21 04:04:00,
2013-02-20 22:05:00,48.2,34.6,29.94,East,91,11.0,22.0,59,0.00,,,0.12,WUHU21623XXSP,2013-02-21 04:05:00,
2013-02-20 22:08:00,48.2,34.6,29.94,East,85,12.0,22.0,59,0.00,,,0.12,WUHU21623XXSP,2013-02-21 04:08:00,
2013-02-20 22:09:00,48.2,34.6,29.94,SE,135,11.0,22.0,59,0.00,,,0.12,WUHU21623XXSP,2013-02-21 04:09:00,
2013-02-20 22:10:00,48.2,34.6,29.94,ESE,112,17.0,20.0,59,0.00,,,0.12,WUHU21623XXSP,2013-02-21 04:10:00,
2013-02-20 22:13:00,48.0,34.4,29.94,ESE,103,11.0,18.0,59,0.00,,,0.12,WUHU21623XXSP,2013-02-21 04:13:00,
2013-02-20 22:14:00,48.0,34.4,29.94,East,96,9.0,18.0,59,0.00,,,0.12,WUHU21623XXSP,2013-02-21 04:14:00,
2013-02-20 22:15:00,48.0,34.4,29.94,ENE,67,16.0,18.0,59,0.00,,,0.12,WUHU21623XXSP,2013-02-21 04:15:00,
2013-02-20 22:18:00,48.0,34.4,29.94,East,94,14.0,23.0,59,0.00,,,0.12,WUHU21623XXSP,2013-02-21 04:18:00,
2013-02-20 22:19:00,48.0,34.4,29.94,ESE,112,12.0,23.0,59,0.00,,,0.12,WUHU21623XXSP,2013-02-21 04:19:00,
2013-02-20 22:20:00,48.0,34.4,29.94,East,93,12.0,23.0,59,0.00,,,0.12,WUHU21623XXSP,2013-02-21 04:20:00,
2013-02-20 22:23:00,48.0,34.4,29.94,East,97,11.0,23.0,59,0.00,,,0.12,WUHU21623XXSP,2013-02-21 04:23:00,
2013-02-20 22:24:00,48.0,34.4,29.94,ESE,102,11.0,23.0,59,0.00,,,0.12,WUHU21623XXSP,2013-02-21 04:24:00,
2013-02-20 22:25:00,48.0,34.4,29.94,NNE,22,13.0,23.0,59,0.00,,,0.12,WUHU21623XXSP,2013-02-21 04:25:00,
2013-02-20 22:28:00,48.0,34.4,29.94,East,98,13.0,20.0,59,0.00,,,0.12,WUHU21623XXSP,2013-02-21 04:28:00,
2013-02-20 22:30:00,48.0,34.4,29.94,ESE,112,20.0,23.0,59,0.00,,,0.12,WUHU21623XXSP,2013-02-21 04:30:00,
2013-02-20 22:31:00,48.0,34.4,29.94,East,93,16.0,23.0,59,0.00,,,0.12,WUHU21623XXSP,2013-02-21 04:31:00,
2013-02-20 22:33:00,48.0,34.4,29.93,ESE,112,11.0,23.0,59,0.00,,,0.12,WUHU21623XXSP,2013-02-21 04:33:00,
2013-02-20 22:35:00,48.0,34.4,29.93,ENE,67,13.0,23.0,59,0.00,,,0.12,WUHU21623XXSP,2013-02-21 04:35:00,
2013-02-20 22:36:00,48.0,34.4,29.93,East,90,12.0,23.0,59,0.00,,,0.12,WUHU21623XXSP,2013-02-21 04:36:00,
2013-02-20 22:39:00,48.0,34.4,29.94,East,90,13.0,23.0,59,0.00,,,0.12,WUHU21623XXSP,2013-02-21 04:39:00,
2013-02-20 22:40:00,48.0,34.4,29.93,East,92,13.0,20.0,59,0.00,,,0.12,WUHU21623XXSP,2013-02-21 04:40:00,
2013-02-20 22:41:00,48.0,34.4,29.93,East,79,12.0,20.0,59,0.00,,,0.12,WUHU21623XXSP,2013-02-21 04:41:00,
2013-02-20 22:44:00,48.0,34.4,29.93,East,90,11.0,20.0,59,0.00,,,0.12,WUHU21623XXSP,2013-02-21 04:44:00,
2013-02-20 22:45:00,48.0,34.4,29.93,East,92,9.0,20.0,59,0.00,,,0.12,WUHU21623XXSP,2013-02-21 04:45:00,
2013-02-20 22:46:00,48.0,34.4,29.93,ESE,112,9.0,20.0,59,0.00,,,0.12,WUHU21623XXSP,2013-02-21 04:46:00,
2013-02-20 22:49:00,48.0,34.4,29.93,ENE,67,11.0,16.0,59,0.00,,,0.12,WUHU21623XXSP,2013-02-21 04:49:00,
2013-02-20 22:50:00,48.0,34.4,29.92,NE,45,13.0,17.0,59,0.00,,,0.12,WUHU21623XXSP,2013-02-21 04:50:00,
2013-02-20 22:51:00,48.0,34.4,29.92,East,85,11.0,17.0,59,0.00,,,0.12,WUHU21623XXSP,2013-02-21 04:51:00,
2013-02-20 22:54:00,48.0,34.4,29.93,ENE,67,12.0,17.0,59,0.00,,,0.12,WUHU21623XXSP,2013-02-21 04:54:00,
2013-02-20 22:55:00,48.2,34.6,29.93,East,81,10.0,17.0,59,0.00,,,0.12,WUHU21623XXSP,2013-02-21 04:55:00,
2013-02-20 22:56:00,48.2,34.6,29.93,East,83,9.0,17.0,59,0.00,,,0.12,WUHU21623XXSP,2013-02-21 04:56:00,
2013-02-20 22:59:00,48.4,34.8,29.92,East,87,14.0,23.0,59,0.00,,,0.12,WUHU21623XXSP,2013-02-21 04:59:00,
2013-02-20 23:00:00,48.2,34.8,29.92,East,96,13.0,23.0,59,0.00,,,0.12,WUHU21623XXSP,2013-02-21 05:00:00,
2013-02-20 23:05:00,48.2,34.1,29.92,ESE,103,8.0,23.0,58,0.00,,,0.12,WUHU21623XXSP,2013-02-21 05:05:00,
2013-02-20 23:10:00,48.2,34.1,29.91,East,97,12.0,19.0,58,0.00,,,0.12,WUHU21623XXSP,2013-02-21 05:10:00,
2013-02-20 23:15:00,48.2,34.1,29.91,East,90,19.0,20.0,58,0.00,,,0.12,WUHU21623XXSP,2013-02-21 05:15:00,
2013-02-20 23:16:00,48.2,34.1,29.91,ESE,105,14.0,20.0,58,0.00,,,0.12,WUHU21623XXSP,2013-02-21 05:16:00,
2013-02-20 23:20:00,48.2,34.1,29.91,SE,135,13.0,22.0,58,0.00,,,0.12,WUHU21623XXSP,2013-02-21 05:20:00,
2013-02-20 23:21:00,48.4,34.3,29.91,ESE,108,10.0,22.0,58,0.00,,,0.12,WUHU21623XXSP,2013-02-21 05:21:00,
2013-02-20 23:25:00,48.2,34.1,29.90,ESE,105,11.0,22.0,58,0.00,,,0.12,WUHU21623XXSP,2013-02-21 05:25:00,
2013-02-20 23:26:00,48.2,34.1,29.90,East,101,10.0,22.0,58,0.00,,,0.12,WUHU21623XXSP,2013-02-21 05:26:00,
2013-02-20 23:30:00,48.0,33.9,29.90,ESE,112,16.0,16.0,58,0.00,,,0.12,WUHU21623XXSP,2013-02-21 05:30:00,
2013-02-20 23:31:00,48.0,33.9,29.89,East,86,16.0,22.0,58,0.00,,,0.12,WUHU21623XXSP,2013-02-21 05:31:00,
2013-02-20 23:35:00,48.0,33.9,29.89,ENE,75,11.0,22.0,58,0.00,,,0.12,WUHU21623XXSP,2013-02-21 05:35:00,
2013-02-20 23:36:00,48.0,33.9,29.89,ENE,70,10.0,22.0,58,0.00,,,0.12,WUHU21623XXSP,2013-02-21 05:36:00,
2013-02-20 23:37:00,48.0,33.9,29.89,East,90,11.0,22.0,58,0.00,,,0.12,WUHU21623XXSP,2013-02-21 05:37:00,
2013-02-20 23:41:00,48.2,34.1,29.89,East,90,12.0,18.0,58,0.00,,,0.12,WUHU21623XXSP,2013-02-21 05:41:00,
2013-02-20 23:42:00,48.2,34.1,29.89,ENE,67,19.0,19.0,58,0.00,,,0.12,WUHU21623XXSP,2013-02-21 05:42:00,
2013-02-20 23:46:00,48.2,34.1,29.89,East,91,9.0,19.0,58,0.00,,,0.12,WUHU21623XXSP,2013-02-21 05:46:00,
2013-02-20 23:47:00,48.0,33.9,29.88,East,90,16.0,17.0,58,0.00,,,0.12,WUHU21623XXSP,2013-02-21 05:47:00,
2013-02-20 23:51:00,48.2,34.1,29.89,East,93,11.0,19.0,58,0.00,,,0.12,WUHU21623XXSP,2013-02-21 05:51:00,
2013-02-20 23:52:00,48.2,34.1,29.88,East,90,12.0,19.0,58,0.00,,,0.12,WUHU21623XXSP,2013-02-21 05:52:00,
2013-02-20 23:58:00,48.0,33.9,29.88,ESE,105,12.0,17.0,58,0.00,,,0.12,WUHU21623XXSP,2013-02-21 05:58:00,
2013-02-20 23:59:00,48.0,33.9,29.88,East,90,13.0,17.0,58,0.00,,,0.12,WUHU21623XXSP,2013-02-21 05:59:00,